<?xml version="1.0" encoding="UTF-8" standalone="no" ?>
<gpx xmlns="http://www.topografix.com/GPX/1/1" xmlns:xsi="http://www.w3.org/2001/XMLSchema-instance" xsi:schemaLocation="http://www.topografix.com/GPX/1/1 http://www.topografix.com/GPX/1/1/gpx.xsd" version="1.1" creator="VisuGPX - https://www.visugpx.com">
  <metadata>
    <name>F26 Valdrôme le Duffre</name>
    <desc><![CDATA[File with points/tracks from Locus Map/4.3.3]]></desc>
  </metadata>
  <trk>
    <name><![CDATA[F26 Valdrôme le Duffre]]></name>
    <extensions>
      <line xmlns="http://www.topografix.com/GPX/gpx_style/0/2">
        <color>FF0000</color>
        <opacity>0.78</opacity>
        <width>3.0</width>
      </line>
    </extensions>
    <trkseg>
      <trkpt lat="44.48209" lon="5.60442">
        <ele>1312.94</ele>
        <time>2021-09-12T07:49:30.000Z</time>
      </trkpt>
      <trkpt lat="44.48202" lon="5.60433">
        <ele>1315.6</ele>
        <time>2021-09-12T07:51:03.000Z</time>
      </trkpt>
      <trkpt lat="44.48194" lon="5.60425">
        <ele>1316.06</ele>
        <time>2021-09-12T07:51:13.000Z</time>
      </trkpt>
      <trkpt lat="44.48187" lon="5.60414">
        <ele>1317.6</ele>
        <time>2021-09-12T07:51:25.000Z</time>
      </trkpt>
      <trkpt lat="44.48183" lon="5.60402">
        <ele>1319</ele>
        <time>2021-09-12T07:51:36.000Z</time>
      </trkpt>
      <trkpt lat="44.48178" lon="5.60389">
        <ele>1320.15</ele>
        <time>2021-09-12T07:51:46.000Z</time>
      </trkpt>
      <trkpt lat="44.48173" lon="5.60378">
        <ele>1320.7</ele>
        <time>2021-09-12T07:51:59.000Z</time>
      </trkpt>
      <trkpt lat="44.48168" lon="5.60367">
        <ele>1322.28</ele>
        <time>2021-09-12T07:52:14.000Z</time>
      </trkpt>
      <trkpt lat="44.48162" lon="5.60356">
        <ele>1322.61</ele>
        <time>2021-09-12T07:52:39.000Z</time>
      </trkpt>
      <trkpt lat="44.48159" lon="5.60344">
        <ele>1323.34</ele>
        <time>2021-09-12T07:52:52.000Z</time>
      </trkpt>
      <trkpt lat="44.48147" lon="5.60334">
        <ele>1324.42</ele>
        <time>2021-09-12T07:53:02.000Z</time>
      </trkpt>
      <trkpt lat="44.4814" lon="5.60325">
        <ele>1324.93</ele>
        <time>2021-09-12T07:53:12.000Z</time>
      </trkpt>
      <trkpt lat="44.48133" lon="5.60315">
        <ele>1325.36</ele>
        <time>2021-09-12T07:53:22.000Z</time>
      </trkpt>
      <trkpt lat="44.48126" lon="5.60303">
        <ele>1325.8</ele>
        <time>2021-09-12T07:53:32.000Z</time>
      </trkpt>
      <trkpt lat="44.48119" lon="5.60293">
        <ele>1327.74</ele>
        <time>2021-09-12T07:53:42.000Z</time>
      </trkpt>
      <trkpt lat="44.48117" lon="5.60278">
        <ele>1328.38</ele>
        <time>2021-09-12T07:53:53.000Z</time>
      </trkpt>
      <trkpt lat="44.48113" lon="5.60265">
        <ele>1329.71</ele>
        <time>2021-09-12T07:54:04.000Z</time>
      </trkpt>
      <trkpt lat="44.48106" lon="5.60252">
        <ele>1329.7</ele>
        <time>2021-09-12T07:54:14.000Z</time>
      </trkpt>
      <trkpt lat="44.48093" lon="5.6024">
        <ele>1329.09</ele>
        <time>2021-09-12T07:54:24.000Z</time>
      </trkpt>
      <trkpt lat="44.48078" lon="5.60236">
        <ele>1331.07</ele>
        <time>2021-09-12T07:54:34.000Z</time>
      </trkpt>
      <trkpt lat="44.48068" lon="5.60227">
        <ele>1331.13</ele>
        <time>2021-09-12T07:54:44.000Z</time>
      </trkpt>
      <trkpt lat="44.48058" lon="5.60216">
        <ele>1331.56</ele>
        <time>2021-09-12T07:54:54.000Z</time>
      </trkpt>
      <trkpt lat="44.4805" lon="5.60208">
        <ele>1332.01</ele>
        <time>2021-09-12T07:55:04.000Z</time>
      </trkpt>
      <trkpt lat="44.48038" lon="5.60201">
        <ele>1332.95</ele>
        <time>2021-09-12T07:55:14.000Z</time>
      </trkpt>
      <trkpt lat="44.4803" lon="5.60195">
        <ele>1333.83</ele>
        <time>2021-09-12T07:55:24.000Z</time>
      </trkpt>
      <trkpt lat="44.48021" lon="5.60188">
        <ele>1334.94</ele>
        <time>2021-09-12T07:55:34.000Z</time>
      </trkpt>
      <trkpt lat="44.48009" lon="5.60185">
        <ele>1336.32</ele>
        <time>2021-09-12T07:55:44.000Z</time>
      </trkpt>
      <trkpt lat="44.47999" lon="5.6018">
        <ele>1337.7</ele>
        <time>2021-09-12T07:55:54.000Z</time>
      </trkpt>
      <trkpt lat="44.47989" lon="5.60175">
        <ele>1338.71</ele>
        <time>2021-09-12T07:56:04.000Z</time>
      </trkpt>
      <trkpt lat="44.47981" lon="5.60169">
        <ele>1339.64</ele>
        <time>2021-09-12T07:56:14.000Z</time>
      </trkpt>
      <trkpt lat="44.47968" lon="5.60165">
        <ele>1340.21</ele>
        <time>2021-09-12T07:56:24.000Z</time>
      </trkpt>
      <trkpt lat="44.47956" lon="5.60163">
        <ele>1341.27</ele>
        <time>2021-09-12T07:56:34.000Z</time>
      </trkpt>
      <trkpt lat="44.47944" lon="5.60162">
        <ele>1342.23</ele>
        <time>2021-09-12T07:56:44.000Z</time>
      </trkpt>
      <trkpt lat="44.47933" lon="5.60157">
        <ele>1343.36</ele>
        <time>2021-09-12T07:56:54.000Z</time>
      </trkpt>
      <trkpt lat="44.47922" lon="5.60153">
        <ele>1344.87</ele>
        <time>2021-09-12T07:57:04.000Z</time>
      </trkpt>
      <trkpt lat="44.47913" lon="5.60149">
        <ele>1345.97</ele>
        <time>2021-09-12T07:57:14.000Z</time>
      </trkpt>
      <trkpt lat="44.479" lon="5.60145">
        <ele>1347.21</ele>
        <time>2021-09-12T07:57:24.000Z</time>
      </trkpt>
      <trkpt lat="44.47888" lon="5.60146">
        <ele>1348.59</ele>
        <time>2021-09-12T07:57:34.000Z</time>
      </trkpt>
      <trkpt lat="44.47878" lon="5.60149">
        <ele>1349.88</ele>
        <time>2021-09-12T07:57:44.000Z</time>
      </trkpt>
      <trkpt lat="44.47867" lon="5.6015">
        <ele>1351.81</ele>
        <time>2021-09-12T07:57:56.000Z</time>
      </trkpt>
      <trkpt lat="44.47856" lon="5.6015">
        <ele>1353.02</ele>
        <time>2021-09-12T07:58:06.000Z</time>
      </trkpt>
      <trkpt lat="44.47847" lon="5.60145">
        <ele>1354.3</ele>
        <time>2021-09-12T07:58:16.000Z</time>
      </trkpt>
      <trkpt lat="44.47839" lon="5.60141">
        <ele>1355.45</ele>
        <time>2021-09-12T07:58:26.000Z</time>
      </trkpt>
      <trkpt lat="44.4783" lon="5.60138">
        <ele>1356.66</ele>
        <time>2021-09-12T07:58:36.000Z</time>
      </trkpt>
      <trkpt lat="44.47821" lon="5.60134">
        <ele>1358.1</ele>
        <time>2021-09-12T07:58:46.000Z</time>
      </trkpt>
      <trkpt lat="44.47811" lon="5.6013">
        <ele>1359.44</ele>
        <time>2021-09-12T07:58:56.000Z</time>
      </trkpt>
      <trkpt lat="44.47797" lon="5.60126">
        <ele>1360.8</ele>
        <time>2021-09-12T07:59:06.000Z</time>
      </trkpt>
      <trkpt lat="44.47788" lon="5.60121">
        <ele>1361.83</ele>
        <time>2021-09-12T07:59:16.000Z</time>
      </trkpt>
      <trkpt lat="44.47777" lon="5.6012">
        <ele>1361.74</ele>
        <time>2021-09-12T07:59:26.000Z</time>
      </trkpt>
      <trkpt lat="44.47766" lon="5.60123">
        <ele>1364.83</ele>
        <time>2021-09-12T07:59:36.000Z</time>
      </trkpt>
      <trkpt lat="44.47756" lon="5.60122">
        <ele>1366.46</ele>
        <time>2021-09-12T07:59:46.000Z</time>
      </trkpt>
      <trkpt lat="44.47744" lon="5.60117">
        <ele>1367.38</ele>
        <time>2021-09-12T07:59:56.000Z</time>
      </trkpt>
      <trkpt lat="44.47735" lon="5.60108">
        <ele>1368.13</ele>
        <time>2021-09-12T08:00:06.000Z</time>
      </trkpt>
      <trkpt lat="44.47724" lon="5.60105">
        <ele>1369.13</ele>
        <time>2021-09-12T08:00:16.000Z</time>
      </trkpt>
      <trkpt lat="44.47713" lon="5.60105">
        <ele>1370.35</ele>
        <time>2021-09-12T08:00:26.000Z</time>
      </trkpt>
      <trkpt lat="44.47703" lon="5.601">
        <ele>1371.7</ele>
        <time>2021-09-12T08:00:36.000Z</time>
      </trkpt>
      <trkpt lat="44.47694" lon="5.60099">
        <ele>1373.39</ele>
        <time>2021-09-12T08:00:47.000Z</time>
      </trkpt>
      <trkpt lat="44.47683" lon="5.60097">
        <ele>1375.32</ele>
        <time>2021-09-12T08:00:57.000Z</time>
      </trkpt>
      <trkpt lat="44.47674" lon="5.60094">
        <ele>1376.52</ele>
        <time>2021-09-12T08:01:08.000Z</time>
      </trkpt>
      <trkpt lat="44.47663" lon="5.60091">
        <ele>1377.4</ele>
        <time>2021-09-12T08:01:18.000Z</time>
      </trkpt>
      <trkpt lat="44.47654" lon="5.60085">
        <ele>1378.85</ele>
        <time>2021-09-12T08:01:31.000Z</time>
      </trkpt>
      <trkpt lat="44.47645" lon="5.60079">
        <ele>1379.68</ele>
        <time>2021-09-12T08:01:41.000Z</time>
      </trkpt>
      <trkpt lat="44.47635" lon="5.60074">
        <ele>1380.52</ele>
        <time>2021-09-12T08:01:51.000Z</time>
      </trkpt>
      <trkpt lat="44.47625" lon="5.60069">
        <ele>1381.63</ele>
        <time>2021-09-12T08:02:01.000Z</time>
      </trkpt>
      <trkpt lat="44.47616" lon="5.60065">
        <ele>1382.86</ele>
        <time>2021-09-12T08:02:11.000Z</time>
      </trkpt>
      <trkpt lat="44.47606" lon="5.60061">
        <ele>1384.1</ele>
        <time>2021-09-12T08:02:21.000Z</time>
      </trkpt>
      <trkpt lat="44.47596" lon="5.60061">
        <ele>1385.72</ele>
        <time>2021-09-12T08:02:33.000Z</time>
      </trkpt>
      <trkpt lat="44.47586" lon="5.60058">
        <ele>1387.65</ele>
        <time>2021-09-12T08:02:43.000Z</time>
      </trkpt>
      <trkpt lat="44.47578" lon="5.60051">
        <ele>1388.87</ele>
        <time>2021-09-12T08:02:54.000Z</time>
      </trkpt>
      <trkpt lat="44.47581" lon="5.60063">
        <ele>1388.87</ele>
        <time>2021-09-12T08:03:06.000Z</time>
      </trkpt>
      <trkpt lat="44.47588" lon="5.60075">
        <ele>1389.86</ele>
        <time>2021-09-12T08:03:16.000Z</time>
      </trkpt>
      <trkpt lat="44.47595" lon="5.60082">
        <ele>1389.6</ele>
        <time>2021-09-12T08:03:27.000Z</time>
      </trkpt>
      <trkpt lat="44.47604" lon="5.60086">
        <ele>1389.62</ele>
        <time>2021-09-12T08:03:37.000Z</time>
      </trkpt>
      <trkpt lat="44.47614" lon="5.601">
        <ele>1390.45</ele>
        <time>2021-09-12T08:03:47.000Z</time>
      </trkpt>
      <trkpt lat="44.4762" lon="5.60111">
        <ele>1391.95</ele>
        <time>2021-09-12T08:03:57.000Z</time>
      </trkpt>
      <trkpt lat="44.47612" lon="5.60117">
        <ele>1394.95</ele>
        <time>2021-09-12T08:04:31.000Z</time>
      </trkpt>
      <trkpt lat="44.47602" lon="5.6012">
        <ele>1397.38</ele>
        <time>2021-09-12T08:04:43.000Z</time>
      </trkpt>
      <trkpt lat="44.47593" lon="5.60124">
        <ele>1399.75</ele>
        <time>2021-09-12T08:04:56.000Z</time>
      </trkpt>
      <trkpt lat="44.47584" lon="5.60123">
        <ele>1401.07</ele>
        <time>2021-09-12T08:05:06.000Z</time>
      </trkpt>
      <trkpt lat="44.47573" lon="5.60122">
        <ele>1402.83</ele>
        <time>2021-09-12T08:05:16.000Z</time>
      </trkpt>
      <trkpt lat="44.47564" lon="5.60122">
        <ele>1404.91</ele>
        <time>2021-09-12T08:05:28.000Z</time>
      </trkpt>
      <trkpt lat="44.47555" lon="5.60124">
        <ele>1407.34</ele>
        <time>2021-09-12T08:05:42.000Z</time>
      </trkpt>
      <trkpt lat="44.47553" lon="5.60136">
        <ele>1409.46</ele>
        <time>2021-09-12T08:05:55.000Z</time>
      </trkpt>
      <trkpt lat="44.47547" lon="5.60147">
        <ele>1411.8</ele>
        <time>2021-09-12T08:06:09.000Z</time>
      </trkpt>
      <trkpt lat="44.47538" lon="5.60148">
        <ele>1413.28</ele>
        <time>2021-09-12T08:06:21.000Z</time>
      </trkpt>
      <trkpt lat="44.47529" lon="5.60145">
        <ele>1414.89</ele>
        <time>2021-09-12T08:06:32.000Z</time>
      </trkpt>
      <trkpt lat="44.4752" lon="5.60144">
        <ele>1416.56</ele>
        <time>2021-09-12T08:06:44.000Z</time>
      </trkpt>
      <trkpt lat="44.47511" lon="5.60147">
        <ele>1418.16</ele>
        <time>2021-09-12T08:07:29.000Z</time>
      </trkpt>
      <trkpt lat="44.47501" lon="5.60149">
        <ele>1419.71</ele>
        <time>2021-09-12T08:07:42.000Z</time>
      </trkpt>
      <trkpt lat="44.47493" lon="5.60154">
        <ele>1421.21</ele>
        <time>2021-09-12T08:07:54.000Z</time>
      </trkpt>
      <trkpt lat="44.47483" lon="5.60153">
        <ele>1422.76</ele>
        <time>2021-09-12T08:08:05.000Z</time>
      </trkpt>
      <trkpt lat="44.47473" lon="5.60154">
        <ele>1424.94</ele>
        <time>2021-09-12T08:08:19.000Z</time>
      </trkpt>
      <trkpt lat="44.47465" lon="5.60157">
        <ele>1426.58</ele>
        <time>2021-09-12T08:08:31.000Z</time>
      </trkpt>
      <trkpt lat="44.47455" lon="5.60162">
        <ele>1428.48</ele>
        <time>2021-09-12T08:08:47.000Z</time>
      </trkpt>
      <trkpt lat="44.47446" lon="5.60165">
        <ele>1429.9</ele>
        <time>2021-09-12T08:08:59.000Z</time>
      </trkpt>
      <trkpt lat="44.47437" lon="5.60165">
        <ele>1431.35</ele>
        <time>2021-09-12T08:09:10.000Z</time>
      </trkpt>
      <trkpt lat="44.47427" lon="5.60164">
        <ele>1432.1</ele>
        <time>2021-09-12T08:09:22.000Z</time>
      </trkpt>
      <trkpt lat="44.47417" lon="5.60162">
        <ele>1433.65</ele>
        <time>2021-09-12T08:09:33.000Z</time>
      </trkpt>
      <trkpt lat="44.47408" lon="5.60163">
        <ele>1435.53</ele>
        <time>2021-09-12T08:09:46.000Z</time>
      </trkpt>
      <trkpt lat="44.47398" lon="5.60166">
        <ele>1436.86</ele>
        <time>2021-09-12T08:09:57.000Z</time>
      </trkpt>
      <trkpt lat="44.4739" lon="5.60171">
        <ele>1438.97</ele>
        <time>2021-09-12T08:10:30.000Z</time>
      </trkpt>
      <trkpt lat="44.47381" lon="5.60176">
        <ele>1440.56</ele>
        <time>2021-09-12T08:10:42.000Z</time>
      </trkpt>
      <trkpt lat="44.47373" lon="5.60181">
        <ele>1442.2</ele>
        <time>2021-09-12T08:10:54.000Z</time>
      </trkpt>
      <trkpt lat="44.47364" lon="5.60188">
        <ele>1444.22</ele>
        <time>2021-09-12T08:11:08.000Z</time>
      </trkpt>
      <trkpt lat="44.47359" lon="5.60199">
        <ele>1445.94</ele>
        <time>2021-09-12T08:11:20.000Z</time>
      </trkpt>
      <trkpt lat="44.47355" lon="5.60211">
        <ele>1447.53</ele>
        <time>2021-09-12T08:11:31.000Z</time>
      </trkpt>
      <trkpt lat="44.47351" lon="5.60224">
        <ele>1449.65</ele>
        <time>2021-09-12T08:11:45.000Z</time>
      </trkpt>
      <trkpt lat="44.47345" lon="5.60233">
        <ele>1451.33</ele>
        <time>2021-09-12T08:11:57.000Z</time>
      </trkpt>
      <trkpt lat="44.47338" lon="5.60244">
        <ele>1453.11</ele>
        <time>2021-09-12T08:12:10.000Z</time>
      </trkpt>
      <trkpt lat="44.4733" lon="5.60249">
        <ele>1455.16</ele>
        <time>2021-09-12T08:12:24.000Z</time>
      </trkpt>
      <trkpt lat="44.47324" lon="5.60259">
        <ele>1457.34</ele>
        <time>2021-09-12T08:12:39.000Z</time>
      </trkpt>
      <trkpt lat="44.4732" lon="5.60271">
        <ele>1459.15</ele>
        <time>2021-09-12T08:12:54.000Z</time>
      </trkpt>
      <trkpt lat="44.47313" lon="5.60278">
        <ele>1461.56</ele>
        <time>2021-09-12T08:13:11.000Z</time>
      </trkpt>
      <trkpt lat="44.47304" lon="5.60283">
        <ele>1463.46</ele>
        <time>2021-09-12T08:13:23.000Z</time>
      </trkpt>
      <trkpt lat="44.47298" lon="5.60293">
        <ele>1465.51</ele>
        <time>2021-09-12T08:13:35.000Z</time>
      </trkpt>
      <trkpt lat="44.4729" lon="5.603">
        <ele>1467.82</ele>
        <time>2021-09-12T08:13:48.000Z</time>
      </trkpt>
      <trkpt lat="44.47282" lon="5.60308">
        <ele>1470.83</ele>
        <time>2021-09-12T08:14:06.000Z</time>
      </trkpt>
      <trkpt lat="44.47274" lon="5.60313">
        <ele>1473.73</ele>
        <time>2021-09-12T08:14:23.000Z</time>
      </trkpt>
      <trkpt lat="44.47267" lon="5.6032">
        <ele>1476.21</ele>
        <time>2021-09-12T08:14:36.000Z</time>
      </trkpt>
      <trkpt lat="44.47259" lon="5.60328">
        <ele>1479.28</ele>
        <time>2021-09-12T08:14:53.000Z</time>
      </trkpt>
      <trkpt lat="44.47261" lon="5.60341">
        <ele>1482.16</ele>
        <time>2021-09-12T08:15:10.000Z</time>
      </trkpt>
      <trkpt lat="44.4726" lon="5.60353">
        <ele>1485.17</ele>
        <time>2021-09-12T08:15:26.000Z</time>
      </trkpt>
      <trkpt lat="44.47253" lon="5.60363">
        <ele>1487.7</ele>
        <time>2021-09-12T08:15:41.000Z</time>
      </trkpt>
      <trkpt lat="44.47248" lon="5.60374">
        <ele>1490.07</ele>
        <time>2021-09-12T08:15:57.000Z</time>
      </trkpt>
      <trkpt lat="44.47242" lon="5.60384">
        <ele>1491.57</ele>
        <time>2021-09-12T08:16:16.000Z</time>
      </trkpt>
      <trkpt lat="44.47243" lon="5.60398">
        <ele>1492.81</ele>
        <time>2021-09-12T08:17:18.000Z</time>
      </trkpt>
      <trkpt lat="44.47246" lon="5.6041">
        <ele>1493.01</ele>
        <time>2021-09-12T08:17:28.000Z</time>
      </trkpt>
      <trkpt lat="44.47249" lon="5.60422">
        <ele>1493.21</ele>
        <time>2021-09-12T08:17:38.000Z</time>
      </trkpt>
      <trkpt lat="44.47253" lon="5.60433">
        <ele>1493.13</ele>
        <time>2021-09-12T08:17:48.000Z</time>
      </trkpt>
      <trkpt lat="44.47257" lon="5.60445">
        <ele>1492.7</ele>
        <time>2021-09-12T08:18:02.000Z</time>
      </trkpt>
      <trkpt lat="44.47262" lon="5.60457">
        <ele>1492.29</ele>
        <time>2021-09-12T08:18:14.000Z</time>
      </trkpt>
      <trkpt lat="44.47267" lon="5.60467">
        <ele>1492.07</ele>
        <time>2021-09-12T08:18:42.000Z</time>
      </trkpt>
      <trkpt lat="44.47271" lon="5.60479">
        <ele>1491.64</ele>
        <time>2021-09-12T08:18:53.000Z</time>
      </trkpt>
      <trkpt lat="44.47275" lon="5.60491">
        <ele>1491.29</ele>
        <time>2021-09-12T08:19:18.000Z</time>
      </trkpt>
      <trkpt lat="44.4728" lon="5.60502">
        <ele>1490.96</ele>
        <time>2021-09-12T08:19:28.000Z</time>
      </trkpt>
      <trkpt lat="44.47288" lon="5.60511">
        <ele>1489.91</ele>
        <time>2021-09-12T08:19:39.000Z</time>
      </trkpt>
      <trkpt lat="44.47297" lon="5.60517">
        <ele>1489.33</ele>
        <time>2021-09-12T08:19:49.000Z</time>
      </trkpt>
      <trkpt lat="44.47305" lon="5.60525">
        <ele>1488.63</ele>
        <time>2021-09-12T08:20:02.000Z</time>
      </trkpt>
      <trkpt lat="44.47311" lon="5.60534">
        <ele>1487.84</ele>
        <time>2021-09-12T08:20:15.000Z</time>
      </trkpt>
      <trkpt lat="44.47318" lon="5.60543">
        <ele>1487.39</ele>
        <time>2021-09-12T08:21:46.000Z</time>
      </trkpt>
      <trkpt lat="44.47323" lon="5.60557">
        <ele>1487.49</ele>
        <time>2021-09-12T08:21:56.000Z</time>
      </trkpt>
      <trkpt lat="44.47326" lon="5.60569">
        <ele>1487.72</ele>
        <time>2021-09-12T08:22:06.000Z</time>
      </trkpt>
      <trkpt lat="44.47329" lon="5.60582">
        <ele>1488.99</ele>
        <time>2021-09-12T08:22:19.000Z</time>
      </trkpt>
      <trkpt lat="44.47332" lon="5.60596">
        <ele>1488.41</ele>
        <time>2021-09-12T08:22:30.000Z</time>
      </trkpt>
      <trkpt lat="44.47337" lon="5.60609">
        <ele>1488.19</ele>
        <time>2021-09-12T08:22:40.000Z</time>
      </trkpt>
      <trkpt lat="44.47341" lon="5.60622">
        <ele>1487.92</ele>
        <time>2021-09-12T08:22:50.000Z</time>
      </trkpt>
      <trkpt lat="44.47347" lon="5.60633">
        <ele>1487.48</ele>
        <time>2021-09-12T08:23:00.000Z</time>
      </trkpt>
      <trkpt lat="44.47351" lon="5.60645">
        <ele>1486.4</ele>
        <time>2021-09-12T08:23:10.000Z</time>
      </trkpt>
      <trkpt lat="44.47356" lon="5.60656">
        <ele>1485.92</ele>
        <time>2021-09-12T08:23:20.000Z</time>
      </trkpt>
      <trkpt lat="44.47363" lon="5.60667">
        <ele>1485.4</ele>
        <time>2021-09-12T08:23:30.000Z</time>
      </trkpt>
      <trkpt lat="44.47371" lon="5.6068">
        <ele>1485.65</ele>
        <time>2021-09-12T08:23:40.000Z</time>
      </trkpt>
      <trkpt lat="44.47377" lon="5.60692">
        <ele>1485.76</ele>
        <time>2021-09-12T08:23:50.000Z</time>
      </trkpt>
      <trkpt lat="44.47384" lon="5.60703">
        <ele>1485.21</ele>
        <time>2021-09-12T08:24:00.000Z</time>
      </trkpt>
      <trkpt lat="44.47393" lon="5.60712">
        <ele>1484.51</ele>
        <time>2021-09-12T08:24:10.000Z</time>
      </trkpt>
      <trkpt lat="44.47403" lon="5.60723">
        <ele>1483.78</ele>
        <time>2021-09-12T08:24:20.000Z</time>
      </trkpt>
      <trkpt lat="44.4741" lon="5.60732">
        <ele>1483.43</ele>
        <time>2021-09-12T08:24:30.000Z</time>
      </trkpt>
      <trkpt lat="44.47416" lon="5.60743">
        <ele>1482.85</ele>
        <time>2021-09-12T08:24:41.000Z</time>
      </trkpt>
      <trkpt lat="44.47418" lon="5.60756">
        <ele>1484.57</ele>
        <time>2021-09-12T08:24:52.000Z</time>
      </trkpt>
      <trkpt lat="44.47412" lon="5.60764">
        <ele>1486.78</ele>
        <time>2021-09-12T08:25:18.000Z</time>
      </trkpt>
      <trkpt lat="44.47403" lon="5.60773">
        <ele>1487.92</ele>
        <time>2021-09-12T08:25:31.000Z</time>
      </trkpt>
      <trkpt lat="44.47396" lon="5.60783">
        <ele>1490.43</ele>
        <time>2021-09-12T08:25:41.000Z</time>
      </trkpt>
      <trkpt lat="44.47389" lon="5.6079">
        <ele>1492.71</ele>
        <time>2021-09-12T08:25:55.000Z</time>
      </trkpt>
      <trkpt lat="44.4738" lon="5.60795">
        <ele>1494.26</ele>
        <time>2021-09-12T08:26:08.000Z</time>
      </trkpt>
      <trkpt lat="44.47373" lon="5.60804">
        <ele>1495.95</ele>
        <time>2021-09-12T08:26:20.000Z</time>
      </trkpt>
      <trkpt lat="44.47365" lon="5.60812">
        <ele>1497.47</ele>
        <time>2021-09-12T08:26:34.000Z</time>
      </trkpt>
      <trkpt lat="44.4736" lon="5.60824">
        <ele>1499.09</ele>
        <time>2021-09-12T08:26:45.000Z</time>
      </trkpt>
      <trkpt lat="44.47355" lon="5.60836">
        <ele>1499.41</ele>
        <time>2021-09-12T08:26:58.000Z</time>
      </trkpt>
      <trkpt lat="44.47349" lon="5.60847">
        <ele>1501.94</ele>
        <time>2021-09-12T08:27:08.000Z</time>
      </trkpt>
      <trkpt lat="44.47344" lon="5.60858">
        <ele>1502.4</ele>
        <time>2021-09-12T08:27:18.000Z</time>
      </trkpt>
      <trkpt lat="44.47337" lon="5.60868">
        <ele>1502.3</ele>
        <time>2021-09-12T08:27:41.000Z</time>
      </trkpt>
      <trkpt lat="44.47332" lon="5.60881">
        <ele>1503</ele>
        <time>2021-09-12T08:27:51.000Z</time>
      </trkpt>
      <trkpt lat="44.47325" lon="5.60891">
        <ele>1504.09</ele>
        <time>2021-09-12T08:28:03.000Z</time>
      </trkpt>
      <trkpt lat="44.47316" lon="5.60893">
        <ele>1505.19</ele>
        <time>2021-09-12T08:28:14.000Z</time>
      </trkpt>
      <trkpt lat="44.47308" lon="5.60897">
        <ele>1506.93</ele>
        <time>2021-09-12T08:28:24.000Z</time>
      </trkpt>
      <trkpt lat="44.473" lon="5.60906">
        <ele>1508.53</ele>
        <time>2021-09-12T08:28:35.000Z</time>
      </trkpt>
      <trkpt lat="44.47293" lon="5.60914">
        <ele>1510.28</ele>
        <time>2021-09-12T08:28:47.000Z</time>
      </trkpt>
      <trkpt lat="44.47287" lon="5.60925">
        <ele>1511.17</ele>
        <time>2021-09-12T08:28:57.000Z</time>
      </trkpt>
      <trkpt lat="44.47284" lon="5.60941">
        <ele>1511.57</ele>
        <time>2021-09-12T08:29:07.000Z</time>
      </trkpt>
      <trkpt lat="44.4728" lon="5.60954">
        <ele>1512.01</ele>
        <time>2021-09-12T08:29:17.000Z</time>
      </trkpt>
      <trkpt lat="44.47274" lon="5.60968">
        <ele>1513.46</ele>
        <time>2021-09-12T08:29:27.000Z</time>
      </trkpt>
      <trkpt lat="44.47273" lon="5.60983">
        <ele>1514.02</ele>
        <time>2021-09-12T08:29:37.000Z</time>
      </trkpt>
      <trkpt lat="44.47269" lon="5.61">
        <ele>1514.36</ele>
        <time>2021-09-12T08:29:47.000Z</time>
      </trkpt>
      <trkpt lat="44.47264" lon="5.61014">
        <ele>1514.53</ele>
        <time>2021-09-12T08:29:57.000Z</time>
      </trkpt>
      <trkpt lat="44.47257" lon="5.61026">
        <ele>1515.01</ele>
        <time>2021-09-12T08:30:07.000Z</time>
      </trkpt>
      <trkpt lat="44.47249" lon="5.61034">
        <ele>1515.7</ele>
        <time>2021-09-12T08:30:17.000Z</time>
      </trkpt>
      <trkpt lat="44.4724" lon="5.61042">
        <ele>1516.6</ele>
        <time>2021-09-12T08:30:27.000Z</time>
      </trkpt>
      <trkpt lat="44.47233" lon="5.61052">
        <ele>1517.56</ele>
        <time>2021-09-12T08:30:37.000Z</time>
      </trkpt>
      <trkpt lat="44.47225" lon="5.61063">
        <ele>1518.58</ele>
        <time>2021-09-12T08:30:47.000Z</time>
      </trkpt>
      <trkpt lat="44.47218" lon="5.61072">
        <ele>1519.95</ele>
        <time>2021-09-12T08:30:58.000Z</time>
      </trkpt>
      <trkpt lat="44.47212" lon="5.61082">
        <ele>1520.35</ele>
        <time>2021-09-12T08:31:08.000Z</time>
      </trkpt>
      <trkpt lat="44.47204" lon="5.61093">
        <ele>1520.55</ele>
        <time>2021-09-12T08:31:18.000Z</time>
      </trkpt>
      <trkpt lat="44.47197" lon="5.61103">
        <ele>1521.15</ele>
        <time>2021-09-12T08:31:28.000Z</time>
      </trkpt>
      <trkpt lat="44.4719" lon="5.61112">
        <ele>1522.49</ele>
        <time>2021-09-12T08:31:39.000Z</time>
      </trkpt>
      <trkpt lat="44.47183" lon="5.61123">
        <ele>1523.59</ele>
        <time>2021-09-12T08:31:49.000Z</time>
      </trkpt>
      <trkpt lat="44.47177" lon="5.61132">
        <ele>1524.67</ele>
        <time>2021-09-12T08:32:00.000Z</time>
      </trkpt>
      <trkpt lat="44.47171" lon="5.61142">
        <ele>1525.94</ele>
        <time>2021-09-12T08:32:10.000Z</time>
      </trkpt>
      <trkpt lat="44.47166" lon="5.61153">
        <ele>1527.37</ele>
        <time>2021-09-12T08:32:20.000Z</time>
      </trkpt>
      <trkpt lat="44.47159" lon="5.61164">
        <ele>1528.63</ele>
        <time>2021-09-12T08:32:30.000Z</time>
      </trkpt>
      <trkpt lat="44.47154" lon="5.61176">
        <ele>1530.08</ele>
        <time>2021-09-12T08:32:42.000Z</time>
      </trkpt>
      <trkpt lat="44.47148" lon="5.6119">
        <ele>1531</ele>
        <time>2021-09-12T08:32:52.000Z</time>
      </trkpt>
      <trkpt lat="44.47141" lon="5.61199">
        <ele>1532.46</ele>
        <time>2021-09-12T08:33:02.000Z</time>
      </trkpt>
      <trkpt lat="44.47136" lon="5.61211">
        <ele>1534.11</ele>
        <time>2021-09-12T08:33:13.000Z</time>
      </trkpt>
      <trkpt lat="44.47131" lon="5.61221">
        <ele>1535.19</ele>
        <time>2021-09-12T08:33:24.000Z</time>
      </trkpt>
      <trkpt lat="44.47125" lon="5.61233">
        <ele>1536.44</ele>
        <time>2021-09-12T08:33:34.000Z</time>
      </trkpt>
      <trkpt lat="44.47119" lon="5.61244">
        <ele>1537.89</ele>
        <time>2021-09-12T08:33:45.000Z</time>
      </trkpt>
      <trkpt lat="44.47115" lon="5.61256">
        <ele>1539.06</ele>
        <time>2021-09-12T08:33:55.000Z</time>
      </trkpt>
      <trkpt lat="44.4711" lon="5.61268">
        <ele>1540.15</ele>
        <time>2021-09-12T08:34:06.000Z</time>
      </trkpt>
      <trkpt lat="44.47104" lon="5.61279">
        <ele>1540.05</ele>
        <time>2021-09-12T08:34:16.000Z</time>
      </trkpt>
      <trkpt lat="44.47101" lon="5.61291">
        <ele>1539.41</ele>
        <time>2021-09-12T08:34:29.000Z</time>
      </trkpt>
      <trkpt lat="44.47101" lon="5.61304">
        <ele>1538.29</ele>
        <time>2021-09-12T08:34:55.000Z</time>
      </trkpt>
      <trkpt lat="44.47102" lon="5.61289">
        <ele>1538.89</ele>
        <time>2021-09-12T08:39:39.000Z</time>
      </trkpt>
      <trkpt lat="44.47097" lon="5.61278">
        <ele>1540.15</ele>
        <time>2021-09-12T08:39:49.000Z</time>
      </trkpt>
      <trkpt lat="44.47093" lon="5.61266">
        <ele>1541.9</ele>
        <time>2021-09-12T08:40:02.000Z</time>
      </trkpt>
      <trkpt lat="44.4709" lon="5.61254">
        <ele>1545.03</ele>
        <time>2021-09-12T08:40:38.000Z</time>
      </trkpt>
      <trkpt lat="44.47085" lon="5.61244">
        <ele>1546.55</ele>
        <time>2021-09-12T08:40:50.000Z</time>
      </trkpt>
      <trkpt lat="44.47079" lon="5.61233">
        <ele>1549.44</ele>
        <time>2021-09-12T08:41:06.000Z</time>
      </trkpt>
      <trkpt lat="44.47072" lon="5.61222">
        <ele>1553.16</ele>
        <time>2021-09-12T08:41:28.000Z</time>
      </trkpt>
      <trkpt lat="44.47067" lon="5.61211">
        <ele>1555.84</ele>
        <time>2021-09-12T08:41:44.000Z</time>
      </trkpt>
      <trkpt lat="44.47065" lon="5.61199">
        <ele>1559.27</ele>
        <time>2021-09-12T08:42:09.000Z</time>
      </trkpt>
      <trkpt lat="44.47061" lon="5.61186">
        <ele>1562.3</ele>
        <time>2021-09-12T08:42:27.000Z</time>
      </trkpt>
      <trkpt lat="44.47059" lon="5.61173">
        <ele>1565.2</ele>
        <time>2021-09-12T08:42:44.000Z</time>
      </trkpt>
      <trkpt lat="44.47055" lon="5.61161">
        <ele>1568.02</ele>
        <time>2021-09-12T08:43:01.000Z</time>
      </trkpt>
      <trkpt lat="44.4705" lon="5.61151">
        <ele>1571.6</ele>
        <time>2021-09-12T08:43:23.000Z</time>
      </trkpt>
      <trkpt lat="44.47047" lon="5.61139">
        <ele>1574.36</ele>
        <time>2021-09-12T08:43:41.000Z</time>
      </trkpt>
      <trkpt lat="44.47044" lon="5.61126">
        <ele>1576.92</ele>
        <time>2021-09-12T08:44:01.000Z</time>
      </trkpt>
      <trkpt lat="44.47036" lon="5.61133">
        <ele>1580.73</ele>
        <time>2021-09-12T08:44:23.000Z</time>
      </trkpt>
      <trkpt lat="44.47029" lon="5.61141">
        <ele>1583.51</ele>
        <time>2021-09-12T08:44:40.000Z</time>
      </trkpt>
      <trkpt lat="44.47023" lon="5.61151">
        <ele>1585.3</ele>
        <time>2021-09-12T08:44:54.000Z</time>
      </trkpt>
      <trkpt lat="44.47016" lon="5.6116">
        <ele>1588.77</ele>
        <time>2021-09-12T08:45:23.000Z</time>
      </trkpt>
      <trkpt lat="44.4701" lon="5.61169">
        <ele>1591.54</ele>
        <time>2021-09-12T08:45:38.000Z</time>
      </trkpt>
      <trkpt lat="44.47003" lon="5.61178">
        <ele>1593.85</ele>
        <time>2021-09-12T08:45:52.000Z</time>
      </trkpt>
      <trkpt lat="44.46995" lon="5.61184">
        <ele>1597.55</ele>
        <time>2021-09-12T08:46:16.000Z</time>
      </trkpt>
      <trkpt lat="44.46985" lon="5.61182">
        <ele>1600.25</ele>
        <time>2021-09-12T08:48:00.000Z</time>
      </trkpt>
      <trkpt lat="44.46978" lon="5.61173">
        <ele>1603.09</ele>
        <time>2021-09-12T08:48:19.000Z</time>
      </trkpt>
      <trkpt lat="44.46971" lon="5.61164">
        <ele>1604.9</ele>
        <time>2021-09-12T08:48:40.000Z</time>
      </trkpt>
      <trkpt lat="44.46964" lon="5.61157">
        <ele>1607.4</ele>
        <time>2021-09-12T08:48:58.000Z</time>
      </trkpt>
      <trkpt lat="44.46956" lon="5.6115">
        <ele>1609.57</ele>
        <time>2021-09-12T08:49:13.000Z</time>
      </trkpt>
      <trkpt lat="44.46948" lon="5.61144">
        <ele>1612.58</ele>
        <time>2021-09-12T08:49:31.000Z</time>
      </trkpt>
      <trkpt lat="44.46939" lon="5.61141">
        <ele>1614.96</ele>
        <time>2021-09-12T08:49:48.000Z</time>
      </trkpt>
      <trkpt lat="44.46934" lon="5.6113">
        <ele>1617.51</ele>
        <time>2021-09-12T08:50:19.000Z</time>
      </trkpt>
      <trkpt lat="44.4693" lon="5.61117">
        <ele>1619.68</ele>
        <time>2021-09-12T08:50:33.000Z</time>
      </trkpt>
      <trkpt lat="44.4693" lon="5.61104">
        <ele>1621.83</ele>
        <time>2021-09-12T08:50:49.000Z</time>
      </trkpt>
      <trkpt lat="44.46927" lon="5.61092">
        <ele>1623.94</ele>
        <time>2021-09-12T08:51:05.000Z</time>
      </trkpt>
      <trkpt lat="44.46923" lon="5.61079">
        <ele>1625.87</ele>
        <time>2021-09-12T08:51:20.000Z</time>
      </trkpt>
      <trkpt lat="44.46919" lon="5.61068">
        <ele>1629.2</ele>
        <time>2021-09-12T08:51:42.000Z</time>
      </trkpt>
      <trkpt lat="44.46912" lon="5.61059">
        <ele>1632.53</ele>
        <time>2021-09-12T08:52:04.000Z</time>
      </trkpt>
      <trkpt lat="44.46908" lon="5.61047">
        <ele>1635.1</ele>
        <time>2021-09-12T08:52:19.000Z</time>
      </trkpt>
      <trkpt lat="44.46906" lon="5.61035">
        <ele>1638.1</ele>
        <time>2021-09-12T08:52:36.000Z</time>
      </trkpt>
      <trkpt lat="44.46902" lon="5.61023">
        <ele>1640.8</ele>
        <time>2021-09-12T08:52:54.000Z</time>
      </trkpt>
      <trkpt lat="44.46899" lon="5.61011">
        <ele>1643.63</ele>
        <time>2021-09-12T08:53:43.000Z</time>
      </trkpt>
      <trkpt lat="44.46895" lon="5.60999">
        <ele>1645.04</ele>
        <time>2021-09-12T08:53:57.000Z</time>
      </trkpt>
      <trkpt lat="44.4689" lon="5.60988">
        <ele>1648.03</ele>
        <time>2021-09-12T08:54:11.000Z</time>
      </trkpt>
      <trkpt lat="44.46888" lon="5.60974">
        <ele>1650.38</ele>
        <time>2021-09-12T08:54:25.000Z</time>
      </trkpt>
      <trkpt lat="44.46886" lon="5.60962">
        <ele>1653.17</ele>
        <time>2021-09-12T08:54:41.000Z</time>
      </trkpt>
      <trkpt lat="44.46882" lon="5.6095">
        <ele>1655.12</ele>
        <time>2021-09-12T08:54:54.000Z</time>
      </trkpt>
      <trkpt lat="44.46874" lon="5.60942">
        <ele>1656.69</ele>
        <time>2021-09-12T08:55:07.000Z</time>
      </trkpt>
      <trkpt lat="44.46866" lon="5.60935">
        <ele>1658.39</ele>
        <time>2021-09-12T08:55:19.000Z</time>
      </trkpt>
      <trkpt lat="44.4686" lon="5.60925">
        <ele>1660.83</ele>
        <time>2021-09-12T08:55:35.000Z</time>
      </trkpt>
      <trkpt lat="44.46858" lon="5.60912">
        <ele>1662.43</ele>
        <time>2021-09-12T08:55:47.000Z</time>
      </trkpt>
      <trkpt lat="44.46856" lon="5.60899">
        <ele>1664.45</ele>
        <time>2021-09-12T08:56:10.000Z</time>
      </trkpt>
      <trkpt lat="44.46854" lon="5.60886">
        <ele>1666.93</ele>
        <time>2021-09-12T08:56:26.000Z</time>
      </trkpt>
      <trkpt lat="44.46851" lon="5.60873">
        <ele>1669</ele>
        <time>2021-09-12T08:56:39.000Z</time>
      </trkpt>
      <trkpt lat="44.46849" lon="5.6086">
        <ele>1671.45</ele>
        <time>2021-09-12T08:56:52.000Z</time>
      </trkpt>
      <trkpt lat="44.46844" lon="5.60849">
        <ele>1673.53</ele>
        <time>2021-09-12T08:57:05.000Z</time>
      </trkpt>
      <trkpt lat="44.4684" lon="5.60838">
        <ele>1675.52</ele>
        <time>2021-09-12T08:57:18.000Z</time>
      </trkpt>
      <trkpt lat="44.46835" lon="5.60827">
        <ele>1678.13</ele>
        <time>2021-09-12T08:57:33.000Z</time>
      </trkpt>
      <trkpt lat="44.46831" lon="5.60814">
        <ele>1680.15</ele>
        <time>2021-09-12T08:57:56.000Z</time>
      </trkpt>
      <trkpt lat="44.46829" lon="5.60801">
        <ele>1682.32</ele>
        <time>2021-09-12T08:59:00.000Z</time>
      </trkpt>
      <trkpt lat="44.46829" lon="5.60788">
        <ele>1684.72</ele>
        <time>2021-09-12T08:59:12.000Z</time>
      </trkpt>
      <trkpt lat="44.46827" lon="5.60775">
        <ele>1686.95</ele>
        <time>2021-09-12T08:59:25.000Z</time>
      </trkpt>
      <trkpt lat="44.46826" lon="5.60762">
        <ele>1689.55</ele>
        <time>2021-09-12T08:59:38.000Z</time>
      </trkpt>
      <trkpt lat="44.46823" lon="5.60751">
        <ele>1691.26</ele>
        <time>2021-09-12T08:59:49.000Z</time>
      </trkpt>
      <trkpt lat="44.4682" lon="5.60737">
        <ele>1693.03</ele>
        <time>2021-09-12T09:00:02.000Z</time>
      </trkpt>
      <trkpt lat="44.46821" lon="5.60724">
        <ele>1694.38</ele>
        <time>2021-09-12T09:00:19.000Z</time>
      </trkpt>
      <trkpt lat="44.4682" lon="5.60711">
        <ele>1696.42</ele>
        <time>2021-09-12T09:00:32.000Z</time>
      </trkpt>
      <trkpt lat="44.46819" lon="5.60699">
        <ele>1698.49</ele>
        <time>2021-09-12T09:00:44.000Z</time>
      </trkpt>
      <trkpt lat="44.46815" lon="5.60686">
        <ele>1701.69</ele>
        <time>2021-09-12T09:01:02.000Z</time>
      </trkpt>
      <trkpt lat="44.46815" lon="5.60673">
        <ele>1703.92</ele>
        <time>2021-09-12T09:01:52.000Z</time>
      </trkpt>
      <trkpt lat="44.46814" lon="5.6066">
        <ele>1706.64</ele>
        <time>2021-09-12T09:02:13.000Z</time>
      </trkpt>
      <trkpt lat="44.4681" lon="5.60648">
        <ele>1707.61</ele>
        <time>2021-09-12T09:02:24.000Z</time>
      </trkpt>
      <trkpt lat="44.46807" lon="5.60636">
        <ele>1709.3</ele>
        <time>2021-09-12T09:02:34.000Z</time>
      </trkpt>
      <trkpt lat="44.46799" lon="5.60628">
        <ele>1712.66</ele>
        <time>2021-09-12T09:02:52.000Z</time>
      </trkpt>
      <trkpt lat="44.46792" lon="5.60622">
        <ele>1714.97</ele>
        <time>2021-09-12T09:03:05.000Z</time>
      </trkpt>
      <trkpt lat="44.46784" lon="5.60614">
        <ele>1716.33</ele>
        <time>2021-09-12T09:03:19.000Z</time>
      </trkpt>
      <trkpt lat="44.46775" lon="5.60613">
        <ele>1717.07</ele>
        <time>2021-09-12T09:11:06.000Z</time>
      </trkpt>
      <trkpt lat="44.46766" lon="5.60612">
        <ele>1713.91</ele>
        <time>2021-09-12T09:11:29.000Z</time>
      </trkpt>
      <trkpt lat="44.4676" lon="5.60602">
        <ele>1707.66</ele>
        <time>2021-09-12T09:12:00.000Z</time>
      </trkpt>
      <trkpt lat="44.46751" lon="5.60598">
        <ele>1702.53</ele>
        <time>2021-09-12T09:12:18.000Z</time>
      </trkpt>
      <trkpt lat="44.46747" lon="5.60586">
        <ele>1699.3</ele>
        <time>2021-09-12T09:12:33.000Z</time>
      </trkpt>
      <trkpt lat="44.46739" lon="5.6058">
        <ele>1694.54</ele>
        <time>2021-09-12T09:12:46.000Z</time>
      </trkpt>
      <trkpt lat="44.46732" lon="5.60571">
        <ele>1690.3</ele>
        <time>2021-09-12T09:12:58.000Z</time>
      </trkpt>
      <trkpt lat="44.46721" lon="5.60568">
        <ele>1687.36</ele>
        <time>2021-09-12T09:13:08.000Z</time>
      </trkpt>
      <trkpt lat="44.46715" lon="5.60555">
        <ele>1684.06</ele>
        <time>2021-09-12T09:13:18.000Z</time>
      </trkpt>
      <trkpt lat="44.46704" lon="5.60547">
        <ele>1680.35</ele>
        <time>2021-09-12T09:13:28.000Z</time>
      </trkpt>
      <trkpt lat="44.46694" lon="5.60536">
        <ele>1676.57</ele>
        <time>2021-09-12T09:13:38.000Z</time>
      </trkpt>
      <trkpt lat="44.46687" lon="5.60526">
        <ele>1676.96</ele>
        <time>2021-09-12T09:14:13.000Z</time>
      </trkpt>
      <trkpt lat="44.46678" lon="5.60519">
        <ele>1676.42</ele>
        <time>2021-09-12T09:14:23.000Z</time>
      </trkpt>
      <trkpt lat="44.4667" lon="5.60512">
        <ele>1676.84</ele>
        <time>2021-09-12T09:14:38.000Z</time>
      </trkpt>
      <trkpt lat="44.46661" lon="5.60506">
        <ele>1678.09</ele>
        <time>2021-09-12T09:14:49.000Z</time>
      </trkpt>
      <trkpt lat="44.46654" lon="5.60498">
        <ele>1680.87</ele>
        <time>2021-09-12T09:15:00.000Z</time>
      </trkpt>
      <trkpt lat="44.46645" lon="5.60492">
        <ele>1683.55</ele>
        <time>2021-09-12T09:15:12.000Z</time>
      </trkpt>
      <trkpt lat="44.46636" lon="5.60487">
        <ele>1686.01</ele>
        <time>2021-09-12T09:15:24.000Z</time>
      </trkpt>
      <trkpt lat="44.46628" lon="5.6048">
        <ele>1688.96</ele>
        <time>2021-09-12T09:15:40.000Z</time>
      </trkpt>
      <trkpt lat="44.46621" lon="5.60472">
        <ele>1692.55</ele>
        <time>2021-09-12T09:16:07.000Z</time>
      </trkpt>
      <trkpt lat="44.46614" lon="5.60463">
        <ele>1697.27</ele>
        <time>2021-09-12T09:16:40.000Z</time>
      </trkpt>
      <trkpt lat="44.4661" lon="5.60451">
        <ele>1700.94</ele>
        <time>2021-09-12T09:17:03.000Z</time>
      </trkpt>
      <trkpt lat="44.46603" lon="5.60443">
        <ele>1705.17</ele>
        <time>2021-09-12T09:17:30.000Z</time>
      </trkpt>
      <trkpt lat="44.46593" lon="5.60446">
        <ele>1709.35</ele>
        <time>2021-09-12T09:17:54.000Z</time>
      </trkpt>
      <trkpt lat="44.46584" lon="5.60449">
        <ele>1713.93</ele>
        <time>2021-09-12T09:18:22.000Z</time>
      </trkpt>
      <trkpt lat="44.46575" lon="5.60448">
        <ele>1717.9</ele>
        <time>2021-09-12T09:18:42.000Z</time>
      </trkpt>
      <trkpt lat="44.46566" lon="5.6045">
        <ele>1720.5</ele>
        <time>2021-09-12T09:19:04.000Z</time>
      </trkpt>
      <trkpt lat="44.46566" lon="5.60437">
        <ele>1725.55</ele>
        <time>2021-09-12T09:19:29.000Z</time>
      </trkpt>
      <trkpt lat="44.46564" lon="5.60424">
        <ele>1729.37</ele>
        <time>2021-09-12T09:19:51.000Z</time>
      </trkpt>
      <trkpt lat="44.46559" lon="5.60413">
        <ele>1733.08</ele>
        <time>2021-09-12T09:20:12.000Z</time>
      </trkpt>
      <trkpt lat="44.46553" lon="5.60403">
        <ele>1736.23</ele>
        <time>2021-09-12T09:20:32.000Z</time>
      </trkpt>
      <trkpt lat="44.46552" lon="5.6039">
        <ele>1738.65</ele>
        <time>2021-09-12T09:20:50.000Z</time>
      </trkpt>
      <trkpt lat="44.46552" lon="5.60377">
        <ele>1740.67</ele>
        <time>2021-09-12T09:21:05.000Z</time>
      </trkpt>
      <trkpt lat="44.46552" lon="5.60363">
        <ele>1742.09</ele>
        <time>2021-09-12T09:21:20.000Z</time>
      </trkpt>
      <trkpt lat="44.46557" lon="5.60353">
        <ele>1743.67</ele>
        <time>2021-09-12T09:21:37.000Z</time>
      </trkpt>
      <trkpt lat="44.46552" lon="5.60342">
        <ele>1742.28</ele>
        <time>2021-09-12T09:28:09.000Z</time>
      </trkpt>
      <trkpt lat="44.46544" lon="5.60338">
        <ele>1740.38</ele>
        <time>2021-09-12T09:29:09.000Z</time>
      </trkpt>
      <trkpt lat="44.46539" lon="5.60327">
        <ele>1738.31</ele>
        <time>2021-09-12T09:29:24.000Z</time>
      </trkpt>
      <trkpt lat="44.46543" lon="5.60338">
        <ele>1739.77</ele>
        <time>2021-09-12T09:32:56.000Z</time>
      </trkpt>
      <trkpt lat="44.46549" lon="5.60348">
        <ele>1744.68</ele>
        <time>2021-09-12T09:33:08.000Z</time>
      </trkpt>
      <trkpt lat="44.46558" lon="5.6035">
        <ele>1744.81</ele>
        <time>2021-09-12T09:33:20.000Z</time>
      </trkpt>
      <trkpt lat="44.46555" lon="5.60362">
        <ele>1742.7</ele>
        <time>2021-09-12T09:39:34.000Z</time>
      </trkpt>
      <trkpt lat="44.46552" lon="5.60375">
        <ele>1741.13</ele>
        <time>2021-09-12T09:39:44.000Z</time>
      </trkpt>
      <trkpt lat="44.46551" lon="5.6039">
        <ele>1739.64</ele>
        <time>2021-09-12T09:40:15.000Z</time>
      </trkpt>
      <trkpt lat="44.46549" lon="5.60403">
        <ele>1737.33</ele>
        <time>2021-09-12T09:40:33.000Z</time>
      </trkpt>
      <trkpt lat="44.46549" lon="5.60418">
        <ele>1734.11</ele>
        <time>2021-09-12T09:40:43.000Z</time>
      </trkpt>
      <trkpt lat="44.46547" lon="5.6043">
        <ele>1730.42</ele>
        <time>2021-09-12T09:41:27.000Z</time>
      </trkpt>
      <trkpt lat="44.46547" lon="5.60444">
        <ele>1725.64</ele>
        <time>2021-09-12T09:42:36.000Z</time>
      </trkpt>
      <trkpt lat="44.46557" lon="5.60449">
        <ele>1723.43</ele>
        <time>2021-09-12T09:42:46.000Z</time>
      </trkpt>
      <trkpt lat="44.46566" lon="5.60451">
        <ele>1720.54</ele>
        <time>2021-09-12T09:43:08.000Z</time>
      </trkpt>
      <trkpt lat="44.46575" lon="5.6045">
        <ele>1716.97</ele>
        <time>2021-09-12T09:43:23.000Z</time>
      </trkpt>
      <trkpt lat="44.46584" lon="5.60449">
        <ele>1713.2</ele>
        <time>2021-09-12T09:43:39.000Z</time>
      </trkpt>
      <trkpt lat="44.46594" lon="5.60448">
        <ele>1709.28</ele>
        <time>2021-09-12T09:43:53.000Z</time>
      </trkpt>
      <trkpt lat="44.46602" lon="5.60452">
        <ele>1703.99</ele>
        <time>2021-09-12T09:44:11.000Z</time>
      </trkpt>
      <trkpt lat="44.46609" lon="5.60461">
        <ele>1699.74</ele>
        <time>2021-09-12T09:44:28.000Z</time>
      </trkpt>
      <trkpt lat="44.46616" lon="5.60471">
        <ele>1695.6</ele>
        <time>2021-09-12T09:44:39.000Z</time>
      </trkpt>
      <trkpt lat="44.46623" lon="5.6048">
        <ele>1691.38</ele>
        <time>2021-09-12T09:44:49.000Z</time>
      </trkpt>
      <trkpt lat="44.46633" lon="5.60487">
        <ele>1687.53</ele>
        <time>2021-09-12T09:44:59.000Z</time>
      </trkpt>
      <trkpt lat="44.46641" lon="5.60493">
        <ele>1684.02</ele>
        <time>2021-09-12T09:45:09.000Z</time>
      </trkpt>
      <trkpt lat="44.46651" lon="5.605">
        <ele>1680.9</ele>
        <time>2021-09-12T09:45:19.000Z</time>
      </trkpt>
      <trkpt lat="44.46662" lon="5.60509">
        <ele>1677.7</ele>
        <time>2021-09-12T09:45:29.000Z</time>
      </trkpt>
      <trkpt lat="44.46675" lon="5.60515">
        <ele>1676.1</ele>
        <time>2021-09-12T09:45:39.000Z</time>
      </trkpt>
      <trkpt lat="44.46681" lon="5.60527">
        <ele>1675.7</ele>
        <time>2021-09-12T09:45:49.000Z</time>
      </trkpt>
      <trkpt lat="44.4669" lon="5.60533">
        <ele>1676.63</ele>
        <time>2021-09-12T09:46:24.000Z</time>
      </trkpt>
      <trkpt lat="44.46697" lon="5.60543">
        <ele>1678.15</ele>
        <time>2021-09-12T09:46:35.000Z</time>
      </trkpt>
      <trkpt lat="44.46704" lon="5.6055">
        <ele>1679.89</ele>
        <time>2021-09-12T09:46:45.000Z</time>
      </trkpt>
      <trkpt lat="44.46713" lon="5.60556">
        <ele>1682.67</ele>
        <time>2021-09-12T09:46:59.000Z</time>
      </trkpt>
      <trkpt lat="44.46721" lon="5.60561">
        <ele>1685.56</ele>
        <time>2021-09-12T09:47:15.000Z</time>
      </trkpt>
      <trkpt lat="44.46731" lon="5.60563">
        <ele>1688.72</ele>
        <time>2021-09-12T09:49:24.000Z</time>
      </trkpt>
      <trkpt lat="44.46739" lon="5.60567">
        <ele>1691.67</ele>
        <time>2021-09-12T09:49:37.000Z</time>
      </trkpt>
      <trkpt lat="44.46749" lon="5.60569">
        <ele>1694.78</ele>
        <time>2021-09-12T09:49:50.000Z</time>
      </trkpt>
      <trkpt lat="44.46758" lon="5.60569">
        <ele>1698.33</ele>
        <time>2021-09-12T09:50:13.000Z</time>
      </trkpt>
      <trkpt lat="44.46768" lon="5.60572">
        <ele>1701.16</ele>
        <time>2021-09-12T09:50:27.000Z</time>
      </trkpt>
      <trkpt lat="44.46777" lon="5.60576">
        <ele>1704.12</ele>
        <time>2021-09-12T09:51:05.000Z</time>
      </trkpt>
      <trkpt lat="44.46785" lon="5.60582">
        <ele>1707.11</ele>
        <time>2021-09-12T09:51:19.000Z</time>
      </trkpt>
      <trkpt lat="44.46794" lon="5.6058">
        <ele>1709.37</ele>
        <time>2021-09-12T09:51:33.000Z</time>
      </trkpt>
      <trkpt lat="44.46803" lon="5.60585">
        <ele>1712.47</ele>
        <time>2021-09-12T09:51:48.000Z</time>
      </trkpt>
      <trkpt lat="44.46809" lon="5.60596">
        <ele>1713.5</ele>
        <time>2021-09-12T09:52:27.000Z</time>
      </trkpt>
      <trkpt lat="44.46808" lon="5.60611">
        <ele>1713.69</ele>
        <time>2021-09-12T09:52:37.000Z</time>
      </trkpt>
      <trkpt lat="44.46808" lon="5.60628">
        <ele>1713.92</ele>
        <time>2021-09-12T09:52:47.000Z</time>
      </trkpt>
      <trkpt lat="44.46807" lon="5.6064">
        <ele>1712.57</ele>
        <time>2021-09-12T09:52:57.000Z</time>
      </trkpt>
      <trkpt lat="44.46813" lon="5.60651">
        <ele>1710.66</ele>
        <time>2021-09-12T09:53:22.000Z</time>
      </trkpt>
      <trkpt lat="44.46816" lon="5.60666">
        <ele>1709.21</ele>
        <time>2021-09-12T09:53:32.000Z</time>
      </trkpt>
      <trkpt lat="44.46818" lon="5.60682">
        <ele>1706.57</ele>
        <time>2021-09-12T09:53:42.000Z</time>
      </trkpt>
      <trkpt lat="44.46819" lon="5.60695">
        <ele>1704.77</ele>
        <time>2021-09-12T09:53:52.000Z</time>
      </trkpt>
      <trkpt lat="44.46823" lon="5.60706">
        <ele>1701.39</ele>
        <time>2021-09-12T09:54:04.000Z</time>
      </trkpt>
      <trkpt lat="44.46823" lon="5.60719">
        <ele>1699.83</ele>
        <time>2021-09-12T09:54:26.000Z</time>
      </trkpt>
      <trkpt lat="44.46824" lon="5.60735">
        <ele>1698.55</ele>
        <time>2021-09-12T09:54:36.000Z</time>
      </trkpt>
      <trkpt lat="44.46826" lon="5.60749">
        <ele>1696.32</ele>
        <time>2021-09-12T09:54:46.000Z</time>
      </trkpt>
      <trkpt lat="44.46827" lon="5.60762">
        <ele>1694.6</ele>
        <time>2021-09-12T09:54:56.000Z</time>
      </trkpt>
      <trkpt lat="44.46828" lon="5.60775">
        <ele>1692.83</ele>
        <time>2021-09-12T09:56:32.000Z</time>
      </trkpt>
      <trkpt lat="44.46829" lon="5.60788">
        <ele>1691.17</ele>
        <time>2021-09-12T09:56:46.000Z</time>
      </trkpt>
      <trkpt lat="44.46828" lon="5.60804">
        <ele>1689.15</ele>
        <time>2021-09-12T09:56:56.000Z</time>
      </trkpt>
      <trkpt lat="44.46831" lon="5.60819">
        <ele>1687.03</ele>
        <time>2021-09-12T09:57:06.000Z</time>
      </trkpt>
      <trkpt lat="44.46836" lon="5.60833">
        <ele>1684.27</ele>
        <time>2021-09-12T09:57:16.000Z</time>
      </trkpt>
      <trkpt lat="44.46842" lon="5.60848">
        <ele>1681.7</ele>
        <time>2021-09-12T09:57:26.000Z</time>
      </trkpt>
      <trkpt lat="44.46847" lon="5.60863">
        <ele>1679</ele>
        <time>2021-09-12T09:57:36.000Z</time>
      </trkpt>
      <trkpt lat="44.46851" lon="5.60879">
        <ele>1675.73</ele>
        <time>2021-09-12T09:57:46.000Z</time>
      </trkpt>
      <trkpt lat="44.46854" lon="5.60897">
        <ele>1673.24</ele>
        <time>2021-09-12T09:57:56.000Z</time>
      </trkpt>
      <trkpt lat="44.46857" lon="5.60911">
        <ele>1670.23</ele>
        <time>2021-09-12T09:58:06.000Z</time>
      </trkpt>
      <trkpt lat="44.4686" lon="5.6093">
        <ele>1667.93</ele>
        <time>2021-09-12T09:58:16.000Z</time>
      </trkpt>
      <trkpt lat="44.46863" lon="5.60948">
        <ele>1666.18</ele>
        <time>2021-09-12T09:58:26.000Z</time>
      </trkpt>
      <trkpt lat="44.46866" lon="5.60969">
        <ele>1665.43</ele>
        <time>2021-09-12T09:58:36.000Z</time>
      </trkpt>
      <trkpt lat="44.46871" lon="5.60985">
        <ele>1664.77</ele>
        <time>2021-09-12T09:58:46.000Z</time>
      </trkpt>
      <trkpt lat="44.46876" lon="5.60995">
        <ele>1661.96</ele>
        <time>2021-09-12T09:58:56.000Z</time>
      </trkpt>
      <trkpt lat="44.46879" lon="5.61013">
        <ele>1658.99</ele>
        <time>2021-09-12T09:59:06.000Z</time>
      </trkpt>
      <trkpt lat="44.46882" lon="5.61028">
        <ele>1656.6</ele>
        <time>2021-09-12T09:59:16.000Z</time>
      </trkpt>
      <trkpt lat="44.46887" lon="5.61042">
        <ele>1654.05</ele>
        <time>2021-09-12T09:59:26.000Z</time>
      </trkpt>
      <trkpt lat="44.46895" lon="5.6105">
        <ele>1650.55</ele>
        <time>2021-09-12T09:59:39.000Z</time>
      </trkpt>
      <trkpt lat="44.46905" lon="5.61053">
        <ele>1647.92</ele>
        <time>2021-09-12T10:00:56.000Z</time>
      </trkpt>
      <trkpt lat="44.46909" lon="5.61067">
        <ele>1644.46</ele>
        <time>2021-09-12T10:01:07.000Z</time>
      </trkpt>
      <trkpt lat="44.46912" lon="5.6108">
        <ele>1642.59</ele>
        <time>2021-09-12T10:01:17.000Z</time>
      </trkpt>
      <trkpt lat="44.4692" lon="5.61091">
        <ele>1639.99</ele>
        <time>2021-09-12T10:01:27.000Z</time>
      </trkpt>
      <trkpt lat="44.46929" lon="5.61096">
        <ele>1636.3</ele>
        <time>2021-09-12T10:02:14.000Z</time>
      </trkpt>
      <trkpt lat="44.46933" lon="5.61108">
        <ele>1633.33</ele>
        <time>2021-09-12T10:02:25.000Z</time>
      </trkpt>
      <trkpt lat="44.46935" lon="5.61124">
        <ele>1631.05</ele>
        <time>2021-09-12T10:02:35.000Z</time>
      </trkpt>
      <trkpt lat="44.46938" lon="5.61139">
        <ele>1629.37</ele>
        <time>2021-09-12T10:02:45.000Z</time>
      </trkpt>
      <trkpt lat="44.4695" lon="5.61142">
        <ele>1626.22</ele>
        <time>2021-09-12T10:02:55.000Z</time>
      </trkpt>
      <trkpt lat="44.46959" lon="5.6115">
        <ele>1623.18</ele>
        <time>2021-09-12T10:03:05.000Z</time>
      </trkpt>
      <trkpt lat="44.46968" lon="5.61157">
        <ele>1620.31</ele>
        <time>2021-09-12T10:03:15.000Z</time>
      </trkpt>
      <trkpt lat="44.46975" lon="5.61168">
        <ele>1618.22</ele>
        <time>2021-09-12T10:03:25.000Z</time>
      </trkpt>
      <trkpt lat="44.46985" lon="5.61176">
        <ele>1615.68</ele>
        <time>2021-09-12T10:03:35.000Z</time>
      </trkpt>
      <trkpt lat="44.4699" lon="5.61186">
        <ele>1613.41</ele>
        <time>2021-09-12T10:03:46.000Z</time>
      </trkpt>
      <trkpt lat="44.46998" lon="5.61192">
        <ele>1610.84</ele>
        <time>2021-09-12T10:03:57.000Z</time>
      </trkpt>
      <trkpt lat="44.47006" lon="5.61185">
        <ele>1609.91</ele>
        <time>2021-09-12T10:04:46.000Z</time>
      </trkpt>
      <trkpt lat="44.47011" lon="5.61173">
        <ele>1607.62</ele>
        <time>2021-09-12T10:05:03.000Z</time>
      </trkpt>
      <trkpt lat="44.47018" lon="5.61162">
        <ele>1604.25</ele>
        <time>2021-09-12T10:05:13.000Z</time>
      </trkpt>
      <trkpt lat="44.47025" lon="5.61153">
        <ele>1600.77</ele>
        <time>2021-09-12T10:05:23.000Z</time>
      </trkpt>
      <trkpt lat="44.47033" lon="5.61145">
        <ele>1597.46</ele>
        <time>2021-09-12T10:05:33.000Z</time>
      </trkpt>
      <trkpt lat="44.47041" lon="5.61134">
        <ele>1594.59</ele>
        <time>2021-09-12T10:05:43.000Z</time>
      </trkpt>
      <trkpt lat="44.4705" lon="5.61139">
        <ele>1589.55</ele>
        <time>2021-09-12T10:07:24.000Z</time>
      </trkpt>
      <trkpt lat="44.47053" lon="5.61153">
        <ele>1586.28</ele>
        <time>2021-09-12T10:07:34.000Z</time>
      </trkpt>
      <trkpt lat="44.47059" lon="5.61164">
        <ele>1582.87</ele>
        <time>2021-09-12T10:07:44.000Z</time>
      </trkpt>
      <trkpt lat="44.47062" lon="5.61178">
        <ele>1579.82</ele>
        <time>2021-09-12T10:07:54.000Z</time>
      </trkpt>
      <trkpt lat="44.47065" lon="5.61194">
        <ele>1576.53</ele>
        <time>2021-09-12T10:08:04.000Z</time>
      </trkpt>
      <trkpt lat="44.47069" lon="5.61207">
        <ele>1572.38</ele>
        <time>2021-09-12T10:08:14.000Z</time>
      </trkpt>
      <trkpt lat="44.47074" lon="5.6122">
        <ele>1568.69</ele>
        <time>2021-09-12T10:08:24.000Z</time>
      </trkpt>
      <trkpt lat="44.47081" lon="5.6123">
        <ele>1564.72</ele>
        <time>2021-09-12T10:08:34.000Z</time>
      </trkpt>
      <trkpt lat="44.47087" lon="5.61244">
        <ele>1561.61</ele>
        <time>2021-09-12T10:08:44.000Z</time>
      </trkpt>
      <trkpt lat="44.47091" lon="5.61258">
        <ele>1558.34</ele>
        <time>2021-09-12T10:08:54.000Z</time>
      </trkpt>
      <trkpt lat="44.47097" lon="5.61272">
        <ele>1555.82</ele>
        <time>2021-09-12T10:09:04.000Z</time>
      </trkpt>
      <trkpt lat="44.47102" lon="5.61285">
        <ele>1553.42</ele>
        <time>2021-09-12T10:09:14.000Z</time>
      </trkpt>
      <trkpt lat="44.47106" lon="5.61297">
        <ele>1552.31</ele>
        <time>2021-09-12T10:09:29.000Z</time>
      </trkpt>
      <trkpt lat="44.47114" lon="5.61305">
        <ele>1550.53</ele>
        <time>2021-09-12T10:09:39.000Z</time>
      </trkpt>
      <trkpt lat="44.47118" lon="5.61291">
        <ele>1551.9</ele>
        <time>2021-09-12T10:10:11.000Z</time>
      </trkpt>
      <trkpt lat="44.4712" lon="5.61278">
        <ele>1551.79</ele>
        <time>2021-09-12T10:10:21.000Z</time>
      </trkpt>
      <trkpt lat="44.47121" lon="5.61261">
        <ele>1551.68</ele>
        <time>2021-09-12T10:10:31.000Z</time>
      </trkpt>
      <trkpt lat="44.47122" lon="5.61246">
        <ele>1551.71</ele>
        <time>2021-09-12T10:10:41.000Z</time>
      </trkpt>
      <trkpt lat="44.47129" lon="5.61234">
        <ele>1550.38</ele>
        <time>2021-09-12T10:10:51.000Z</time>
      </trkpt>
      <trkpt lat="44.47137" lon="5.61219">
        <ele>1548.58</ele>
        <time>2021-09-12T10:11:01.000Z</time>
      </trkpt>
      <trkpt lat="44.47143" lon="5.61205">
        <ele>1546.88</ele>
        <time>2021-09-12T10:11:11.000Z</time>
      </trkpt>
      <trkpt lat="44.47151" lon="5.61193">
        <ele>1544.87</ele>
        <time>2021-09-12T10:11:21.000Z</time>
      </trkpt>
      <trkpt lat="44.47156" lon="5.61177">
        <ele>1543.5</ele>
        <time>2021-09-12T10:11:31.000Z</time>
      </trkpt>
      <trkpt lat="44.47163" lon="5.61163">
        <ele>1542.32</ele>
        <time>2021-09-12T10:11:41.000Z</time>
      </trkpt>
      <trkpt lat="44.47172" lon="5.61151">
        <ele>1540.73</ele>
        <time>2021-09-12T10:11:51.000Z</time>
      </trkpt>
      <trkpt lat="44.47181" lon="5.61137">
        <ele>1538.96</ele>
        <time>2021-09-12T10:12:01.000Z</time>
      </trkpt>
      <trkpt lat="44.47188" lon="5.61126">
        <ele>1537.89</ele>
        <time>2021-09-12T10:12:11.000Z</time>
      </trkpt>
      <trkpt lat="44.47195" lon="5.61111">
        <ele>1536.21</ele>
        <time>2021-09-12T10:12:21.000Z</time>
      </trkpt>
      <trkpt lat="44.47206" lon="5.611">
        <ele>1534.87</ele>
        <time>2021-09-12T10:12:31.000Z</time>
      </trkpt>
      <trkpt lat="44.47215" lon="5.61086">
        <ele>1534.76</ele>
        <time>2021-09-12T10:12:41.000Z</time>
      </trkpt>
      <trkpt lat="44.4722" lon="5.61075">
        <ele>1534.31</ele>
        <time>2021-09-12T10:12:51.000Z</time>
      </trkpt>
      <trkpt lat="44.47231" lon="5.61065">
        <ele>1533.09</ele>
        <time>2021-09-12T10:13:01.000Z</time>
      </trkpt>
      <trkpt lat="44.47236" lon="5.61054">
        <ele>1532.25</ele>
        <time>2021-09-12T10:13:12.000Z</time>
      </trkpt>
      <trkpt lat="44.47246" lon="5.61046">
        <ele>1531.01</ele>
        <time>2021-09-12T10:13:22.000Z</time>
      </trkpt>
      <trkpt lat="44.47256" lon="5.61035">
        <ele>1530.32</ele>
        <time>2021-09-12T10:13:32.000Z</time>
      </trkpt>
      <trkpt lat="44.47265" lon="5.61022">
        <ele>1530.04</ele>
        <time>2021-09-12T10:13:42.000Z</time>
      </trkpt>
      <trkpt lat="44.47269" lon="5.61006">
        <ele>1529.53</ele>
        <time>2021-09-12T10:13:52.000Z</time>
      </trkpt>
      <trkpt lat="44.47273" lon="5.60991">
        <ele>1528.61</ele>
        <time>2021-09-12T10:14:02.000Z</time>
      </trkpt>
      <trkpt lat="44.47276" lon="5.60978">
        <ele>1528.51</ele>
        <time>2021-09-12T10:14:12.000Z</time>
      </trkpt>
      <trkpt lat="44.4728" lon="5.60966">
        <ele>1527.42</ele>
        <time>2021-09-12T10:14:35.000Z</time>
      </trkpt>
      <trkpt lat="44.47284" lon="5.60952">
        <ele>1526.05</ele>
        <time>2021-09-12T10:14:45.000Z</time>
      </trkpt>
      <trkpt lat="44.47288" lon="5.60935">
        <ele>1525.82</ele>
        <time>2021-09-12T10:14:55.000Z</time>
      </trkpt>
      <trkpt lat="44.47294" lon="5.60921">
        <ele>1524.74</ele>
        <time>2021-09-12T10:15:05.000Z</time>
      </trkpt>
      <trkpt lat="44.47303" lon="5.60912">
        <ele>1523.16</ele>
        <time>2021-09-12T10:15:15.000Z</time>
      </trkpt>
      <trkpt lat="44.47314" lon="5.60902">
        <ele>1521.15</ele>
        <time>2021-09-12T10:15:25.000Z</time>
      </trkpt>
      <trkpt lat="44.47323" lon="5.609">
        <ele>1518.71</ele>
        <time>2021-09-12T10:15:42.000Z</time>
      </trkpt>
      <trkpt lat="44.47333" lon="5.60894">
        <ele>1517.63</ele>
        <time>2021-09-12T10:15:52.000Z</time>
      </trkpt>
      <trkpt lat="44.47339" lon="5.60877">
        <ele>1516.19</ele>
        <time>2021-09-12T10:16:02.000Z</time>
      </trkpt>
      <trkpt lat="44.47346" lon="5.60861">
        <ele>1516.49</ele>
        <time>2021-09-12T10:16:12.000Z</time>
      </trkpt>
      <trkpt lat="44.4735" lon="5.60848">
        <ele>1515.51</ele>
        <time>2021-09-12T10:16:22.000Z</time>
      </trkpt>
      <trkpt lat="44.47358" lon="5.60838">
        <ele>1514.37</ele>
        <time>2021-09-12T10:16:32.000Z</time>
      </trkpt>
      <trkpt lat="44.47364" lon="5.60825">
        <ele>1512.94</ele>
        <time>2021-09-12T10:16:42.000Z</time>
      </trkpt>
      <trkpt lat="44.47372" lon="5.60811">
        <ele>1510.86</ele>
        <time>2021-09-12T10:16:52.000Z</time>
      </trkpt>
      <trkpt lat="44.4738" lon="5.60801">
        <ele>1508.99</ele>
        <time>2021-09-12T10:17:02.000Z</time>
      </trkpt>
      <trkpt lat="44.47389" lon="5.60796">
        <ele>1506.59</ele>
        <time>2021-09-12T10:17:12.000Z</time>
      </trkpt>
      <trkpt lat="44.47397" lon="5.60789">
        <ele>1505.85</ele>
        <time>2021-09-12T10:17:31.000Z</time>
      </trkpt>
      <trkpt lat="44.47404" lon="5.60778">
        <ele>1503.1</ele>
        <time>2021-09-12T10:17:41.000Z</time>
      </trkpt>
      <trkpt lat="44.47412" lon="5.6077">
        <ele>1501.16</ele>
        <time>2021-09-12T10:17:51.000Z</time>
      </trkpt>
      <trkpt lat="44.4742" lon="5.60758">
        <ele>1498.89</ele>
        <time>2021-09-12T10:18:01.000Z</time>
      </trkpt>
      <trkpt lat="44.47422" lon="5.60744">
        <ele>1496.56</ele>
        <time>2021-09-12T10:18:11.000Z</time>
      </trkpt>
      <trkpt lat="44.47431" lon="5.6074">
        <ele>1495.53</ele>
        <time>2021-09-12T10:18:21.000Z</time>
      </trkpt>
      <trkpt lat="44.47421" lon="5.60737">
        <ele>1496.58</ele>
        <time>2021-09-12T10:18:57.000Z</time>
      </trkpt>
      <trkpt lat="44.47411" lon="5.60732">
        <ele>1497.53</ele>
        <time>2021-09-12T10:19:07.000Z</time>
      </trkpt>
      <trkpt lat="44.47401" lon="5.60722">
        <ele>1498.24</ele>
        <time>2021-09-12T10:19:17.000Z</time>
      </trkpt>
      <trkpt lat="44.47395" lon="5.60712">
        <ele>1499.69</ele>
        <time>2021-09-12T10:19:35.000Z</time>
      </trkpt>
      <trkpt lat="44.47385" lon="5.60702">
        <ele>1499.14</ele>
        <time>2021-09-12T10:19:45.000Z</time>
      </trkpt>
      <trkpt lat="44.47379" lon="5.60692">
        <ele>1499.5</ele>
        <time>2021-09-12T10:19:56.000Z</time>
      </trkpt>
      <trkpt lat="44.47374" lon="5.6068">
        <ele>1499.15</ele>
        <time>2021-09-12T10:20:08.000Z</time>
      </trkpt>
      <trkpt lat="44.47366" lon="5.60666">
        <ele>1499.01</ele>
        <time>2021-09-12T10:20:18.000Z</time>
      </trkpt>
      <trkpt lat="44.47358" lon="5.60654">
        <ele>1499.48</ele>
        <time>2021-09-12T10:20:28.000Z</time>
      </trkpt>
      <trkpt lat="44.4735" lon="5.6064">
        <ele>1500.08</ele>
        <time>2021-09-12T10:20:38.000Z</time>
      </trkpt>
      <trkpt lat="44.47345" lon="5.60627">
        <ele>1500.62</ele>
        <time>2021-09-12T10:20:48.000Z</time>
      </trkpt>
      <trkpt lat="44.47339" lon="5.60612">
        <ele>1501</ele>
        <time>2021-09-12T10:20:58.000Z</time>
      </trkpt>
      <trkpt lat="44.47336" lon="5.60599">
        <ele>1501.18</ele>
        <time>2021-09-12T10:21:08.000Z</time>
      </trkpt>
      <trkpt lat="44.47331" lon="5.60584">
        <ele>1501.01</ele>
        <time>2021-09-12T10:21:18.000Z</time>
      </trkpt>
      <trkpt lat="44.47326" lon="5.60573">
        <ele>1500.99</ele>
        <time>2021-09-12T10:21:28.000Z</time>
      </trkpt>
      <trkpt lat="44.47322" lon="5.60561">
        <ele>1500.35</ele>
        <time>2021-09-12T10:21:52.000Z</time>
      </trkpt>
      <trkpt lat="44.47318" lon="5.60546">
        <ele>1500.5</ele>
        <time>2021-09-12T10:22:02.000Z</time>
      </trkpt>
      <trkpt lat="44.47312" lon="5.60533">
        <ele>1500.7</ele>
        <time>2021-09-12T10:22:12.000Z</time>
      </trkpt>
      <trkpt lat="44.47302" lon="5.60522">
        <ele>1501.23</ele>
        <time>2021-09-12T10:22:22.000Z</time>
      </trkpt>
      <trkpt lat="44.47296" lon="5.6051">
        <ele>1501.79</ele>
        <time>2021-09-12T10:22:32.000Z</time>
      </trkpt>
      <trkpt lat="44.47292" lon="5.60499">
        <ele>1501.62</ele>
        <time>2021-09-12T10:23:25.000Z</time>
      </trkpt>
      <trkpt lat="44.47288" lon="5.60486">
        <ele>1501.31</ele>
        <time>2021-09-12T10:23:38.000Z</time>
      </trkpt>
      <trkpt lat="44.47282" lon="5.60477">
        <ele>1501.66</ele>
        <time>2021-09-12T10:23:49.000Z</time>
      </trkpt>
      <trkpt lat="44.47272" lon="5.60478">
        <ele>1504.02</ele>
        <time>2021-09-12T10:24:03.000Z</time>
      </trkpt>
      <trkpt lat="44.47266" lon="5.60468">
        <ele>1504.17</ele>
        <time>2021-09-12T10:24:39.000Z</time>
      </trkpt>
      <trkpt lat="44.47262" lon="5.60455">
        <ele>1504.66</ele>
        <time>2021-09-12T10:24:49.000Z</time>
      </trkpt>
      <trkpt lat="44.47261" lon="5.60442">
        <ele>1504.93</ele>
        <time>2021-09-12T10:25:03.000Z</time>
      </trkpt>
      <trkpt lat="44.47255" lon="5.60429">
        <ele>1505.24</ele>
        <time>2021-09-12T10:25:13.000Z</time>
      </trkpt>
      <trkpt lat="44.4725" lon="5.60415">
        <ele>1505.2</ele>
        <time>2021-09-12T10:25:23.000Z</time>
      </trkpt>
      <trkpt lat="44.47247" lon="5.60399">
        <ele>1505.05</ele>
        <time>2021-09-12T10:25:33.000Z</time>
      </trkpt>
      <trkpt lat="44.47247" lon="5.60386">
        <ele>1503.69</ele>
        <time>2021-09-12T10:25:46.000Z</time>
      </trkpt>
      <trkpt lat="44.47251" lon="5.60375">
        <ele>1501.59</ele>
        <time>2021-09-12T10:25:56.000Z</time>
      </trkpt>
      <trkpt lat="44.47254" lon="5.60361">
        <ele>1500.05</ele>
        <time>2021-09-12T10:26:06.000Z</time>
      </trkpt>
      <trkpt lat="44.47255" lon="5.60348">
        <ele>1497.27</ele>
        <time>2021-09-12T10:26:18.000Z</time>
      </trkpt>
      <trkpt lat="44.47254" lon="5.60333">
        <ele>1496.7</ele>
        <time>2021-09-12T10:26:28.000Z</time>
      </trkpt>
      <trkpt lat="44.47256" lon="5.60321">
        <ele>1494.9</ele>
        <time>2021-09-12T10:26:40.000Z</time>
      </trkpt>
      <trkpt lat="44.47261" lon="5.6031">
        <ele>1492.21</ele>
        <time>2021-09-12T10:26:50.000Z</time>
      </trkpt>
      <trkpt lat="44.47267" lon="5.60299">
        <ele>1489.58</ele>
        <time>2021-09-12T10:27:01.000Z</time>
      </trkpt>
      <trkpt lat="44.47276" lon="5.60285">
        <ele>1487.2</ele>
        <time>2021-09-12T10:27:11.000Z</time>
      </trkpt>
      <trkpt lat="44.47282" lon="5.60275">
        <ele>1484.83</ele>
        <time>2021-09-12T10:27:54.000Z</time>
      </trkpt>
      <trkpt lat="44.47285" lon="5.60263">
        <ele>1482.49</ele>
        <time>2021-09-12T10:28:05.000Z</time>
      </trkpt>
      <trkpt lat="44.47292" lon="5.60251">
        <ele>1480.29</ele>
        <time>2021-09-12T10:28:15.000Z</time>
      </trkpt>
      <trkpt lat="44.4729" lon="5.60239">
        <ele>1479.98</ele>
        <time>2021-09-12T10:28:30.000Z</time>
      </trkpt>
      <trkpt lat="44.47288" lon="5.60223">
        <ele>1477.87</ele>
        <time>2021-09-12T10:28:40.000Z</time>
      </trkpt>
      <trkpt lat="44.4729" lon="5.60209">
        <ele>1475.37</ele>
        <time>2021-09-12T10:28:50.000Z</time>
      </trkpt>
      <trkpt lat="44.47299" lon="5.60206">
        <ele>1471.23</ele>
        <time>2021-09-12T10:29:29.000Z</time>
      </trkpt>
      <trkpt lat="44.47309" lon="5.60205">
        <ele>1468.23</ele>
        <time>2021-09-12T10:29:39.000Z</time>
      </trkpt>
      <trkpt lat="44.47318" lon="5.60202">
        <ele>1465.56</ele>
        <time>2021-09-12T10:29:51.000Z</time>
      </trkpt>
      <trkpt lat="44.47329" lon="5.60193">
        <ele>1463.33</ele>
        <time>2021-09-12T10:30:01.000Z</time>
      </trkpt>
      <trkpt lat="44.47338" lon="5.60183">
        <ele>1461.22</ele>
        <time>2021-09-12T10:30:11.000Z</time>
      </trkpt>
      <trkpt lat="44.47345" lon="5.60171">
        <ele>1458.62</ele>
        <time>2021-09-12T10:30:21.000Z</time>
      </trkpt>
      <trkpt lat="44.47355" lon="5.60172">
        <ele>1456.67</ele>
        <time>2021-09-12T10:30:32.000Z</time>
      </trkpt>
      <trkpt lat="44.47364" lon="5.60171">
        <ele>1455.05</ele>
        <time>2021-09-12T10:30:42.000Z</time>
      </trkpt>
      <trkpt lat="44.47374" lon="5.60167">
        <ele>1454.11</ele>
        <time>2021-09-12T10:30:52.000Z</time>
      </trkpt>
      <trkpt lat="44.47383" lon="5.60163">
        <ele>1452.07</ele>
        <time>2021-09-12T10:31:06.000Z</time>
      </trkpt>
      <trkpt lat="44.47393" lon="5.60164">
        <ele>1449.52</ele>
        <time>2021-09-12T10:31:18.000Z</time>
      </trkpt>
      <trkpt lat="44.47405" lon="5.60156">
        <ele>1447</ele>
        <time>2021-09-12T10:31:28.000Z</time>
      </trkpt>
      <trkpt lat="44.47417" lon="5.60155">
        <ele>1445.02</ele>
        <time>2021-09-12T10:31:38.000Z</time>
      </trkpt>
      <trkpt lat="44.47427" lon="5.60153">
        <ele>1443.12</ele>
        <time>2021-09-12T10:31:48.000Z</time>
      </trkpt>
      <trkpt lat="44.47439" lon="5.60148">
        <ele>1441.6</ele>
        <time>2021-09-12T10:31:58.000Z</time>
      </trkpt>
      <trkpt lat="44.4745" lon="5.60146">
        <ele>1439.94</ele>
        <time>2021-09-12T10:32:08.000Z</time>
      </trkpt>
      <trkpt lat="44.47461" lon="5.60142">
        <ele>1438.31</ele>
        <time>2021-09-12T10:32:18.000Z</time>
      </trkpt>
      <trkpt lat="44.47471" lon="5.60141">
        <ele>1437.07</ele>
        <time>2021-09-12T10:32:29.000Z</time>
      </trkpt>
      <trkpt lat="44.47482" lon="5.60136">
        <ele>1436.18</ele>
        <time>2021-09-12T10:32:39.000Z</time>
      </trkpt>
      <trkpt lat="44.47488" lon="5.60126">
        <ele>1434.3</ele>
        <time>2021-09-12T10:32:51.000Z</time>
      </trkpt>
      <trkpt lat="44.47497" lon="5.60114">
        <ele>1432.26</ele>
        <time>2021-09-12T10:33:01.000Z</time>
      </trkpt>
      <trkpt lat="44.47504" lon="5.60105">
        <ele>1430.15</ele>
        <time>2021-09-12T10:33:12.000Z</time>
      </trkpt>
      <trkpt lat="44.47514" lon="5.60102">
        <ele>1428.24</ele>
        <time>2021-09-12T10:33:22.000Z</time>
      </trkpt>
      <trkpt lat="44.47524" lon="5.60102">
        <ele>1426.96</ele>
        <time>2021-09-12T10:33:32.000Z</time>
      </trkpt>
      <trkpt lat="44.47534" lon="5.60108">
        <ele>1425.35</ele>
        <time>2021-09-12T10:33:42.000Z</time>
      </trkpt>
      <trkpt lat="44.47542" lon="5.60117">
        <ele>1424.1</ele>
        <time>2021-09-12T10:33:52.000Z</time>
      </trkpt>
      <trkpt lat="44.47552" lon="5.60122">
        <ele>1422.73</ele>
        <time>2021-09-12T10:34:02.000Z</time>
      </trkpt>
      <trkpt lat="44.47566" lon="5.60126">
        <ele>1421</ele>
        <time>2021-09-12T10:34:12.000Z</time>
      </trkpt>
      <trkpt lat="44.47577" lon="5.60127">
        <ele>1418.88</ele>
        <time>2021-09-12T10:34:22.000Z</time>
      </trkpt>
      <trkpt lat="44.47586" lon="5.60127">
        <ele>1416.91</ele>
        <time>2021-09-12T10:34:32.000Z</time>
      </trkpt>
      <trkpt lat="44.47596" lon="5.6013">
        <ele>1415.23</ele>
        <time>2021-09-12T10:34:42.000Z</time>
      </trkpt>
      <trkpt lat="44.47605" lon="5.60128">
        <ele>1413.15</ele>
        <time>2021-09-12T10:34:53.000Z</time>
      </trkpt>
      <trkpt lat="44.47614" lon="5.60123">
        <ele>1410.3</ele>
        <time>2021-09-12T10:35:07.000Z</time>
      </trkpt>
      <trkpt lat="44.47624" lon="5.60122">
        <ele>1408.03</ele>
        <time>2021-09-12T10:35:18.000Z</time>
      </trkpt>
      <trkpt lat="44.47628" lon="5.6011">
        <ele>1406.74</ele>
        <time>2021-09-12T10:35:40.000Z</time>
      </trkpt>
      <trkpt lat="44.47626" lon="5.60098">
        <ele>1404.26</ele>
        <time>2021-09-12T10:35:50.000Z</time>
      </trkpt>
      <trkpt lat="44.47621" lon="5.60086">
        <ele>1403.48</ele>
        <time>2021-09-12T10:36:00.000Z</time>
      </trkpt>
      <trkpt lat="44.47614" lon="5.6008">
        <ele>1403.84</ele>
        <time>2021-09-12T10:36:10.000Z</time>
      </trkpt>
      <trkpt lat="44.47606" lon="5.60072">
        <ele>1403.84</ele>
        <time>2021-09-12T10:36:20.000Z</time>
      </trkpt>
      <trkpt lat="44.47603" lon="5.60058">
        <ele>1402.24</ele>
        <time>2021-09-12T10:36:30.000Z</time>
      </trkpt>
      <trkpt lat="44.47611" lon="5.60065">
        <ele>1399.69</ele>
        <time>2021-09-12T10:37:06.000Z</time>
      </trkpt>
      <trkpt lat="44.47619" lon="5.60072">
        <ele>1397.98</ele>
        <time>2021-09-12T10:37:17.000Z</time>
      </trkpt>
      <trkpt lat="44.4763" lon="5.60076">
        <ele>1396.5</ele>
        <time>2021-09-12T10:37:27.000Z</time>
      </trkpt>
      <trkpt lat="44.4764" lon="5.60079">
        <ele>1395.04</ele>
        <time>2021-09-12T10:37:37.000Z</time>
      </trkpt>
      <trkpt lat="44.4765" lon="5.60086">
        <ele>1393.98</ele>
        <time>2021-09-12T10:37:47.000Z</time>
      </trkpt>
      <trkpt lat="44.47661" lon="5.60093">
        <ele>1393.05</ele>
        <time>2021-09-12T10:37:57.000Z</time>
      </trkpt>
      <trkpt lat="44.47672" lon="5.60098">
        <ele>1392.05</ele>
        <time>2021-09-12T10:38:07.000Z</time>
      </trkpt>
      <trkpt lat="44.47683" lon="5.60105">
        <ele>1390.8</ele>
        <time>2021-09-12T10:38:17.000Z</time>
      </trkpt>
      <trkpt lat="44.47694" lon="5.60111">
        <ele>1389.23</ele>
        <time>2021-09-12T10:38:27.000Z</time>
      </trkpt>
      <trkpt lat="44.47705" lon="5.60109">
        <ele>1387.15</ele>
        <time>2021-09-12T10:38:37.000Z</time>
      </trkpt>
      <trkpt lat="44.47715" lon="5.6011">
        <ele>1385.57</ele>
        <time>2021-09-12T10:38:47.000Z</time>
      </trkpt>
      <trkpt lat="44.47728" lon="5.60113">
        <ele>1384.32</ele>
        <time>2021-09-12T10:38:57.000Z</time>
      </trkpt>
      <trkpt lat="44.4774" lon="5.60116">
        <ele>1382.7</ele>
        <time>2021-09-12T10:39:07.000Z</time>
      </trkpt>
      <trkpt lat="44.47751" lon="5.60122">
        <ele>1381.66</ele>
        <time>2021-09-12T10:39:17.000Z</time>
      </trkpt>
      <trkpt lat="44.47763" lon="5.60129">
        <ele>1380.92</ele>
        <time>2021-09-12T10:39:27.000Z</time>
      </trkpt>
      <trkpt lat="44.47776" lon="5.60132">
        <ele>1379.03</ele>
        <time>2021-09-12T10:39:37.000Z</time>
      </trkpt>
      <trkpt lat="44.47786" lon="5.60133">
        <ele>1377.47</ele>
        <time>2021-09-12T10:39:47.000Z</time>
      </trkpt>
      <trkpt lat="44.47799" lon="5.60135">
        <ele>1376.34</ele>
        <time>2021-09-12T10:39:57.000Z</time>
      </trkpt>
      <trkpt lat="44.47809" lon="5.60138">
        <ele>1375.29</ele>
        <time>2021-09-12T10:40:07.000Z</time>
      </trkpt>
      <trkpt lat="44.4782" lon="5.60142">
        <ele>1373.63</ele>
        <time>2021-09-12T10:40:17.000Z</time>
      </trkpt>
      <trkpt lat="44.47832" lon="5.60145">
        <ele>1371.99</ele>
        <time>2021-09-12T10:40:27.000Z</time>
      </trkpt>
      <trkpt lat="44.47843" lon="5.60151">
        <ele>1370.67</ele>
        <time>2021-09-12T10:40:37.000Z</time>
      </trkpt>
      <trkpt lat="44.47853" lon="5.60155">
        <ele>1369.22</ele>
        <time>2021-09-12T10:40:47.000Z</time>
      </trkpt>
      <trkpt lat="44.47863" lon="5.60158">
        <ele>1368.14</ele>
        <time>2021-09-12T10:40:57.000Z</time>
      </trkpt>
      <trkpt lat="44.47874" lon="5.60162">
        <ele>1366.56</ele>
        <time>2021-09-12T10:41:07.000Z</time>
      </trkpt>
      <trkpt lat="44.47884" lon="5.60159">
        <ele>1364.94</ele>
        <time>2021-09-12T10:41:17.000Z</time>
      </trkpt>
      <trkpt lat="44.47895" lon="5.60159">
        <ele>1363.33</ele>
        <time>2021-09-12T10:41:27.000Z</time>
      </trkpt>
      <trkpt lat="44.47908" lon="5.6016">
        <ele>1361.96</ele>
        <time>2021-09-12T10:41:37.000Z</time>
      </trkpt>
      <trkpt lat="44.47918" lon="5.60166">
        <ele>1360.75</ele>
        <time>2021-09-12T10:41:47.000Z</time>
      </trkpt>
      <trkpt lat="44.47929" lon="5.60172">
        <ele>1359.67</ele>
        <time>2021-09-12T10:41:57.000Z</time>
      </trkpt>
      <trkpt lat="44.47941" lon="5.60173">
        <ele>1358.38</ele>
        <time>2021-09-12T10:42:07.000Z</time>
      </trkpt>
      <trkpt lat="44.47953" lon="5.60178">
        <ele>1357.13</ele>
        <time>2021-09-12T10:42:17.000Z</time>
      </trkpt>
      <trkpt lat="44.47966" lon="5.60181">
        <ele>1355.88</ele>
        <time>2021-09-12T10:42:27.000Z</time>
      </trkpt>
      <trkpt lat="44.47976" lon="5.60185">
        <ele>1354.98</ele>
        <time>2021-09-12T10:42:37.000Z</time>
      </trkpt>
      <trkpt lat="44.47987" lon="5.60189">
        <ele>1354.23</ele>
        <time>2021-09-12T10:42:47.000Z</time>
      </trkpt>
      <trkpt lat="44.47998" lon="5.60195">
        <ele>1353.48</ele>
        <time>2021-09-12T10:42:57.000Z</time>
      </trkpt>
      <trkpt lat="44.48009" lon="5.60197">
        <ele>1352.21</ele>
        <time>2021-09-12T10:43:07.000Z</time>
      </trkpt>
      <trkpt lat="44.4802" lon="5.602">
        <ele>1350.71</ele>
        <time>2021-09-12T10:43:17.000Z</time>
      </trkpt>
      <trkpt lat="44.48034" lon="5.60201">
        <ele>1350.45</ele>
        <time>2021-09-12T10:43:27.000Z</time>
      </trkpt>
      <trkpt lat="44.48047" lon="5.60203">
        <ele>1348.15</ele>
        <time>2021-09-12T10:43:37.000Z</time>
      </trkpt>
      <trkpt lat="44.48057" lon="5.60209">
        <ele>1347.44</ele>
        <time>2021-09-12T10:43:47.000Z</time>
      </trkpt>
      <trkpt lat="44.48065" lon="5.60221">
        <ele>1346.18</ele>
        <time>2021-09-12T10:43:57.000Z</time>
      </trkpt>
      <trkpt lat="44.48074" lon="5.60234">
        <ele>1345.99</ele>
        <time>2021-09-12T10:44:07.000Z</time>
      </trkpt>
      <trkpt lat="44.48086" lon="5.60246">
        <ele>1345.58</ele>
        <time>2021-09-12T10:44:17.000Z</time>
      </trkpt>
      <trkpt lat="44.48096" lon="5.60251">
        <ele>1345.01</ele>
        <time>2021-09-12T10:44:29.000Z</time>
      </trkpt>
      <trkpt lat="44.48104" lon="5.60265">
        <ele>1345.09</ele>
        <time>2021-09-12T10:44:39.000Z</time>
      </trkpt>
      <trkpt lat="44.48113" lon="5.60275">
        <ele>1344.49</ele>
        <time>2021-09-12T10:44:49.000Z</time>
      </trkpt>
      <trkpt lat="44.48118" lon="5.60288">
        <ele>1342.99</ele>
        <time>2021-09-12T10:44:59.000Z</time>
      </trkpt>
      <trkpt lat="44.48125" lon="5.60303">
        <ele>1341.19</ele>
        <time>2021-09-12T10:45:09.000Z</time>
      </trkpt>
      <trkpt lat="44.48135" lon="5.60314">
        <ele>1339.86</ele>
        <time>2021-09-12T10:45:19.000Z</time>
      </trkpt>
      <trkpt lat="44.48141" lon="5.60329">
        <ele>1339.87</ele>
        <time>2021-09-12T10:45:29.000Z</time>
      </trkpt>
      <trkpt lat="44.48148" lon="5.60342">
        <ele>1339.6</ele>
        <time>2021-09-12T10:45:39.000Z</time>
      </trkpt>
      <trkpt lat="44.48157" lon="5.60353">
        <ele>1338.55</ele>
        <time>2021-09-12T10:45:49.000Z</time>
      </trkpt>
      <trkpt lat="44.48162" lon="5.60367">
        <ele>1338.25</ele>
        <time>2021-09-12T10:45:59.000Z</time>
      </trkpt>
      <trkpt lat="44.48168" lon="5.60378">
        <ele>1338.19</ele>
        <time>2021-09-12T10:46:11.000Z</time>
      </trkpt>
      <trkpt lat="44.48176" lon="5.60382">
        <ele>1337.3</ele>
        <time>2021-09-12T10:46:34.000Z</time>
      </trkpt>
      <trkpt lat="44.48185" lon="5.60387">
        <ele>1336.33</ele>
        <time>2021-09-12T10:47:02.000Z</time>
      </trkpt>
      <trkpt lat="44.48185" lon="5.60401">
        <ele>1334.1</ele>
        <time>2021-09-12T10:47:16.000Z</time>
      </trkpt>
      <trkpt lat="44.48188" lon="5.60414">
        <ele>1332.64</ele>
        <time>2021-09-12T10:47:27.000Z</time>
      </trkpt>
      <trkpt lat="44.48193" lon="5.60425">
        <ele>1331.07</ele>
        <time>2021-09-12T10:47:37.000Z</time>
      </trkpt>
      <trkpt lat="44.48203" lon="5.60434">
        <ele>1330.66</ele>
        <time>2021-09-12T10:48:11.000Z</time>
      </trkpt>
      <trkpt lat="44.48211" lon="5.60442">
        <ele>1329.51</ele>
        <time>2021-09-12T10:48:21.000Z</time>
      </trkpt>
      <trkpt lat="44.48221" lon="5.60454">
        <ele>1328.07</ele>
        <time>2021-09-12T10:48:31.000Z</time>
      </trkpt>
      <trkpt lat="44.4823" lon="5.60455">
        <ele>1328.08</ele>
        <time>2021-09-12T10:48:41.000Z</time>
      </trkpt>
      <trkpt lat="44.48239" lon="5.6045">
        <ele>1328.07</ele>
        <time>2021-09-12T10:49:01.000Z</time>
      </trkpt>
      <trkpt lat="44.48241" lon="5.60452">
        <ele>1328.24</ele>
        <time>2021-09-12T10:49:38.000Z</time>
      </trkpt>
    </trkseg>
  </trk>
</gpx>